Observation data for JA Ranch on 01/19/2019      Previous  Date  Next       Current Mesonet Observations  Soil Data  Daily Summary Page  Observations in Plain Language
KPD3 190600Z 34021KT 01/M03 A3003 RMK A01 T00141026  RH  075%=      5-min Rain = 0
KPD3 190601Z 35022G28KT 01/M03 A3003 RMK A01 T00141025  RH  075%=      5-min Rain = 0
KPD3 190602Z 34025KT 01/M03 A3003 RMK A01 T00141025  RH  075%=      5-min Rain = 0
KPD3 190603Z 34022G28KT 01/M03 A3003 RMK A01 T00141025  RH  075%=      5-min Rain = 0
KPD3 190604Z 34019G25KT 01/M03 A3003 RMK A01 T00141025  RH  075%=      5-min Rain = 0
KPD3 190605Z 33021G26KT 01/M03 A3003 RMK A01 T00141025  RH  075%=      5-min Rain = 0
KPD3 190606Z 35027G34KT 02/M03 A3003 RMK A01 T00151026  RH  074%=      5-min Rain = 0
KPD3 190607Z 34025KT 02/M03 A3003 RMK A01 T00151026  RH  074%=      5-min Rain = 0
KPD3 190608Z 35027G32KT 02/M03 A3003 RMK A01 T00151026  RH  074%=      5-min Rain = 0
KPD3 190609Z 34023G28KT 02/M03 A3004 RMK A01 T00151026  RH  074%=      5-min Rain = 0
KPD3 190610Z 36024G29KT 02/M03 A3004 RMK A01 T00151027  RH  074%=      5-min Rain = 0
KPD3 190611Z 34027G35KT 02/M03 A3004 RMK A01 T00151026  RH  074%=      5-min Rain = 0
KPD3 190612Z 34029KT 02/M03 A3004 RMK A01 T00151027  RH  074%=      5-min Rain = 0
KPD3 190613Z 35027G33KT 02/M03 A3004 RMK A01 T00151026  RH  074%=      5-min Rain = 0
KPD3 190614Z 34024G29KT 02/M03 A3004 RMK A01 T00151026  RH  074%=      5-min Rain = 0
KPD3 190615Z 34024G30KT 02/M03 A3004 RMK A01 T00151026  RH  074%=      5-min Rain = 0
KPD3 190616Z 35026G31KT 02/M03 A3004 RMK A01 T00151025  RH  074%=      5-min Rain = 0
KPD3 190617Z 35023KT 02/M03 A3004 RMK A01 T00151025  RH  074%=      5-min Rain = 0
KPD3 190618Z 34018KT 02/M03 A3004 RMK A01 T00151025  RH  075%=      5-min Rain = 0
KPD3 190619Z 34016KT 02/M03 A3004 RMK A01 T00151025  RH  075%=      5-min Rain = 0
KPD3 190620Z 34019G27KT 02/M03 A3005 RMK A01 T00151025  RH  075%=      5-min Rain = 0
KPD3 190621Z 34021G27KT 02/M03 A3004 RMK A01 T00151025  RH  075%=      5-min Rain = 0
KPD3 190622Z 34020G27KT 02/M03 A3005 RMK A01 T00151025  RH  075%=      5-min Rain = 0
KPD3 190623Z 34027G34KT 02/M03 A3005 RMK A01 T00151025  RH  075%=      5-min Rain = 0
KPD3 190624Z 34025G31KT 02/M03 A3005 RMK A01 T00161025  RH  074%=      5-min Rain = 0
KPD3 190625Z 33026G33KT 02/M03 A3005 RMK A01 T00161025  RH  074%=      5-min Rain = 0
KPD3 190626Z 34024G30KT 02/M03 A3005 RMK A01 T00161026  RH  074%=      5-min Rain = 0
KPD3 190627Z 34024G31KT 02/M03 A3005 RMK A01 T00161026  RH  074%=      5-min Rain = 0
KPD3 190628Z 34023KT 02/M03 A3005 RMK A01 T00161026  RH  074%=      5-min Rain = 0
KPD3 190629Z 35024KT 02/M03 A3005 RMK A01 T00161025  RH  074%=      5-min Rain = 0
KPD3 190630Z 35028G33KT 02/M03 A3005 RMK A01 T00171025  RH  074%=      5-min Rain = 0
KPD3 190631Z 34025G30KT 02/M03 A3005 RMK A01 T00171025  RH  074%=      5-min Rain = 0
KPD3 190632Z 34025KT 02/M03 A3005 RMK A01 T00171025  RH  074%=      5-min Rain = 0
KPD3 190633Z 34021KT 02/M03 A3005 RMK A01 T00161025  RH  074%=      5-min Rain = 0
KPD3 190634Z 34021KT 02/M03 A3005 RMK A01 T00171025  RH  074%=      5-min Rain = 0
KPD3 190635Z 34019G25KT 02/M02 A3005 RMK A01 T00171024  RH  074%=      5-min Rain = 0
KPD3 190636Z 35019KT 02/M02 A3005 RMK A01 T00171024  RH  074%=      5-min Rain = 0
KPD3 190637Z 34023G29KT 02/M02 A3005 RMK A01 T00161024  RH  074%=      5-min Rain = 0
KPD3 190638Z 34020G25KT 02/M02 A3005 RMK A01 T00171024  RH  075%=      5-min Rain = 0
KPD3 190639Z 34017KT 02/M02 A3005 RMK A01 T00171023  RH  075%=      5-min Rain = 0
KPD3 190640Z 34017G24KT 02/M02 A3005 RMK A01 T00171023  RH  075%=      5-min Rain = 0
KPD3 190641Z 34022G28KT 02/M02 A3005 RMK A01 T00171023  RH  075%=      5-min Rain = 0
KPD3 190642Z 33028G33KT 02/M02 A3005 RMK A01 T00171022  RH  075%=      5-min Rain = 0
KPD3 190643Z 34024KT 02/M02 A3005 RMK A01 T00161022  RH  076%=      5-min Rain = 0
KPD3 190644Z 34024G29KT 02/M02 A3005 RMK A01 T00171021  RH  076%=      5-min Rain = 0
KPD3 190645Z 34024G32KT 02/M02 A3005 RMK A01 T00161021  RH  076%=      5-min Rain = 0
KPD3 190646Z 33023KT 02/M02 A3005 RMK A01 T00161021  RH  076%=      5-min Rain = 0
KPD3 190647Z 33023KT 02/M02 A3005 RMK A01 T00171021  RH  076%=      5-min Rain = 0
KPD3 190648Z 34022G27KT 02/M02 A3005 RMK A01 T00171021  RH  076%=      5-min Rain = 0
KPD3 190649Z 34020G27KT 02/M02 A3005 RMK A01 T00171020  RH  076%=      5-min Rain = 0
KPD3 190650Z 33019G24KT 02/M02 A3005 RMK A01 T00171020  RH  077%=      5-min Rain = 0
KPD3 190651Z 33021G26KT 02/M02 A3005 RMK A01 T00171020  RH  077%=      5-min Rain = 0
KPD3 190652Z 34025KT 02/M02 A3005 RMK A01 T00161020  RH  077%=      5-min Rain = 0
KPD3 190653Z 34026G32KT 02/M02 A3005 RMK A01 T00161020  RH  077%=      5-min Rain = 0
KPD3 190654Z 33027KT 02/M02 A3005 RMK A01 T00161020  RH  077%=      5-min Rain = 0
KPD3 190655Z 34022G27KT 02/M02 A3005 RMK A01 T00161019  RH  077%=      5-min Rain = 0
KPD3 190656Z 34023KT 02/M02 A3005 RMK A01 T00161019  RH  077%=      5-min Rain = 0
KPD3 190657Z 34020KT 02/M02 A3006 RMK A01 T00161019  RH  077%=      5-min Rain = 0
KPD3 190658Z 34020G25KT 02/M02 A3006 RMK A01 T00161019  RH  078%=      5-min Rain = 0
KPD3 190659Z 34024KT 02/M02 A3006 RMK A01 T00161019  RH  078%=      5-min Rain = 0
KPD3 190700Z 33023KT 02/M02 A3006 RMK A01 T00161019  RH  078%=      5-min Rain = 0
KPD3 190701Z 34019KT 02/M02 A3006 RMK A01 T00161019  RH  078%=      5-min Rain = 0
KPD3 190702Z 34021KT 02/M02 A3006 RMK A01 T00161019  RH  078%=      5-min Rain = 0
KPD3 190703Z 34021KT 02/M02 A3006 RMK A01 T00161018  RH  078%=      5-min Rain = 0
KPD3 190704Z 35018KT 02/M02 A3006 RMK A01 T00161018  RH  078%=      5-min Rain = 0
KPD3 190705Z 34017KT 02/M02 A3006 RMK A01 T00161018  RH  078%=      5-min Rain = 0
KPD3 190706Z 34017KT 02/M02 A3006 RMK A01 T00161018  RH  078%=      5-min Rain = 0
KPD3 190707Z 35016KT 02/M02 A3006 RMK A01 T00161018  RH  078%=      5-min Rain = 0
KPD3 190708Z 34018G23KT 02/M02 A3006 RMK A01 T00161018  RH  078%=      5-min Rain = 0
KPD3 190709Z 34018G23KT 02/M02 A3006 RMK A01 T00161018  RH  078%=      5-min Rain = 0
KPD3 190710Z 34017KT 02/M02 A3006 RMK A01 T00161018  RH  078%=      5-min Rain = 0
KPD3 190711Z 35016KT 02/M02 A3006 RMK A01 T00161017  RH  078%=      5-min Rain = 0
KPD3 190712Z 34013G18KT 02/M02 A3006 RMK A01 T00161017  RH  078%=      5-min Rain = 0
KPD3 190713Z 34014KT 02/M02 A3006 RMK A01 T00161017  RH  079%=      5-min Rain = 0
KPD3 190714Z 35014KT 02/M02 A3006 RMK A01 T00161017  RH  079%=      5-min Rain = 0
KPD3 190715Z 34013G18KT 02/M02 A3006 RMK A01 T00161017  RH  079%=      5-min Rain = 0
KPD3 190716Z 34013KT 02/M02 A3006 RMK A01 T00161017  RH  079%=      5-min Rain = 0
KPD3 190717Z 34011KT 02/M02 A3006 RMK A01 T00161017  RH  079%=      5-min Rain = 0
KPD3 190718Z 34012KT 02/M02 A3006 RMK A01 T00161017  RH  079%=      5-min Rain = 0
KPD3 190719Z 34014G19KT 02/M02 A3006 RMK A01 T00171017  RH  078%=      5-min Rain = 0
KPD3 190720Z 34019KT 02/M02 A3006 RMK A01 T00171018  RH  078%=      5-min Rain = 0
KPD3 190721Z 34024G29KT 02/M02 A3006 RMK A01 T00181019  RH  077%=      5-min Rain = 0
KPD3 190722Z 34026G31KT 02/M02 A3005 RMK A01 T00181022  RH  075%=      5-min Rain = 0
KPD3 190723Z 34027G33KT 02/M02 A3005 RMK A01 T00181024  RH  074%=      5-min Rain = 0
KPD3 190724Z 35026G33KT 02/M02 A3006 RMK A01 T00181024  RH  074%=      5-min Rain = 0
KPD3 190725Z 35022G28KT 02/M03 A3006 RMK A01 T00181025  RH  073%=      5-min Rain = 0
KPD3 190726Z 35020G27KT 02/M03 A3005 RMK A01 T00171027  RH  072%=      5-min Rain = 0
KPD3 190727Z 35025G31KT 02/M03 A3005 RMK A01 T00171029  RH  072%=      5-min Rain = 0
KPD3 190728Z 34023KT 02/M03 A3005 RMK A01 T00171031  RH  070%=      5-min Rain = 0
KPD3 190729Z 34024G33KT 02/M03 A3006 RMK A01 T00171032  RH  070%=      5-min Rain = 0
KPD3 190730Z 34027G36KT 02/M03 A3005 RMK A01 T00161034  RH  069%=      5-min Rain = 0
KPD3 190731Z 34028G36KT 02/M04 A3006 RMK A01 T00161035  RH  069%=      5-min Rain = 0
KPD3 190732Z 34031G38KT 02/M04 A3005 RMK A01 T00161035  RH  069%=      5-min Rain = 0
KPD3 190733Z 34025G32KT 02/M04 A3006 RMK A01 T00171035  RH  069%=      5-min Rain = 0
KPD3 190734Z 34025G33KT 02/M03 A3006 RMK A01 T00171034  RH  069%=      5-min Rain = 0
KPD3 190735Z 34025G32KT 02/M03 A3006 RMK A01 T00161033  RH  070%=      5-min Rain = 0
KPD3 190736Z 34018KT 02/M03 A3006 RMK A01 T00161033  RH  070%=      5-min Rain = 0
KPD3 190737Z 34025G30KT 02/M03 A3006 RMK A01 T00151032  RH  071%=      5-min Rain = 0
KPD3 190738Z 34023KT 02/M03 A3006 RMK A01 T00151031  RH  071%=      5-min Rain = 0
KPD3 190739Z 33019KT 02/M03 A3007 RMK A01 T00151030  RH  072%=      5-min Rain = 0
KPD3 190740Z 33019KT 01/M03 A3007 RMK A01 T00141031  RH  072%=      5-min Rain = 0
KPD3 190741Z 33020KT 01/M03 A3007 RMK A01 T00141030  RH  073%=      5-min Rain = 0
KPD3 190742Z 33023KT 01/M03 A3007 RMK A01 T00141030  RH  073%=      5-min Rain = 0
KPD3 190743Z 33021G28KT 01/M03 A3007 RMK A01 T00141030  RH  073%=      5-min Rain = 0
KPD3 190744Z 34025G33KT 01/M03 A3007 RMK A01 T00131031  RH  072%=      5-min Rain = 0
KPD3 190745Z 33026G33KT 01/M03 A3007 RMK A01 T00131033  RH  071%=      5-min Rain = 0
KPD3 190746Z 33030G35KT 01/M03 A3007 RMK A01 T00131034  RH  071%=      5-min Rain = 0
KPD3 190747Z 34024G31KT 01/M04 A3007 RMK A01 T00131035  RH  070%=      5-min Rain = 0
KPD3 190748Z 34025G32KT 01/M04 A3007 RMK A01 T00121036  RH  070%=      5-min Rain = 0
KPD3 190749Z 34026G35KT 01/M04 A3007 RMK A01 T00121037  RH  070%=      5-min Rain = 0
KPD3 190750Z 34025G33KT 01/M04 A3007 RMK A01 T00121038  RH  070%=      5-min Rain = 0
KPD3 190751Z 34031G40KT 01/M04 A3007 RMK A01 T00121038  RH  069%=      5-min Rain = 0
KPD3 190752Z 34032G38KT 01/M04 A3007 RMK A01 T00121039  RH  069%=      5-min Rain = 0
KPD3 190753Z 34027G35KT 01/M04 A3007 RMK A01 T00121040  RH  069%=      5-min Rain = 0
KPD3 190754Z 34030G37KT 01/M04 A3007 RMK A01 T00111041  RH  068%=      5-min Rain = 0
KPD3 190755Z 34025G33KT 01/M04 A3007 RMK A01 T00111040  RH  068%=      5-min Rain = 0
KPD3 190756Z 34028G34KT 01/M04 A3007 RMK A01 T00111040  RH  069%=      5-min Rain = 0
KPD3 190757Z 34022KT 01/M04 A3008 RMK A01 T00111040  RH  069%=      5-min Rain = 0
KPD3 190758Z 34024G30KT 01/M04 A3008 RMK A01 T00111039  RH  069%=      5-min Rain = 0
KPD3 190759Z 33020G26KT 01/M04 A3008 RMK A01 T00101039  RH  070%=      5-min Rain = 0
KPD3 190800Z 34024KT 01/M04 A3008 RMK A01 T00101039  RH  070%=      5-min Rain = 0
KPD3 190801Z 34030G36KT 01/M04 A3008 RMK A01 T00091040  RH  069%=      5-min Rain = 0
KPD3 190802Z 34031G36KT 01/M04 A3008 RMK A01 T00091042  RH  069%=      5-min Rain = 0
KPD3 190803Z 34033G40KT 01/M04 A3008 RMK A01 T00091043  RH  068%=      5-min Rain = 0
KPD3 190804Z 34029G36KT 01/M04 A3008 RMK A01 T00091043  RH  068%=      5-min Rain = 0
KPD3 190805Z 35028G34KT 01/M04 A3008 RMK A01 T00091044  RH  068%=      5-min Rain = 0
KPD3 190806Z 34023G31KT 01/M04 A3008 RMK A01 T00091043  RH  068%=      5-min Rain = 0
KPD3 190807Z 34023G29KT 01/M04 A3008 RMK A01 T00081043  RH  069%=      5-min Rain = 0
KPD3 190808Z 33024G32KT 01/M04 A3008 RMK A01 T00081043  RH  069%=      5-min Rain = 0
KPD3 190809Z 34029KT 01/M04 A3008 RMK A01 T00081043  RH  069%=      5-min Rain = 0
KPD3 190810Z 34028KT 01/M04 A3008 RMK A01 T00081043  RH  069%=      5-min Rain = 0
KPD3 190811Z 34028G33KT 01/M04 A3008 RMK A01 T00071044  RH  069%=      5-min Rain = 0
KPD3 190812Z 34030G36KT 01/M05 A3008 RMK A01 T00071045  RH  069%=      5-min Rain = 0
KPD3 190813Z 34024G32KT 01/M05 A3008 RMK A01 T00071045  RH  069%=      5-min Rain = 0
KPD3 190814Z 34022G27KT 01/M05 A3009 RMK A01 T00061045  RH  069%=      5-min Rain = 0
KPD3 190815Z 33022G28KT 01/M04 A3009 RMK A01 T00061044  RH  069%=      5-min Rain = 0
KPD3 190816Z 33021G29KT 01/M04 A3009 RMK A01 T00051044  RH  069%=      5-min Rain = 0
KPD3 190817Z 33026KT 01/M04 A3009 RMK A01 T00051044  RH  070%=      5-min Rain = 0
KPD3 190818Z 34022G27KT 01/M04 A3009 RMK A01 T00051044  RH  070%=      5-min Rain = 0
KPD3 190819Z 34020G25KT 01/M05 A3009 RMK A01 T00051045  RH  070%=      5-min Rain = 0
KPD3 190820Z 33029G35KT 00/M05 A3009 RMK A01 T00041045  RH  070%=      5-min Rain = 0
KPD3 190821Z 34024G32KT 00/M05 A3009 RMK A01 T00041045  RH  070%=      5-min Rain = 0
KPD3 190822Z 34021KT 00/M05 A3009 RMK A01 T00041045  RH  070%=      5-min Rain = 0
KPD3 190823Z 34024KT 00/M05 A3009 RMK A01 T00041045  RH  070%=      5-min Rain = 0
KPD3 190824Z 34027G33KT 00/M05 A3009 RMK A01 T00041046  RH  070%=      5-min Rain = 0
KPD3 190825Z 34023G29KT 00/M05 A3009 RMK A01 T00031046  RH  069%=      5-min Rain = 0
KPD3 190826Z 34030G37KT 00/M05 A3009 RMK A01 T00031046  RH  069%=      5-min Rain = 0
KPD3 190827Z 35029G37KT 00/M05 A3009 RMK A01 T00031047  RH  069%=      5-min Rain = 0
KPD3 190828Z 34023G31KT 00/M05 A301 RMK A01 T00031047  RH  069%=      5-min Rain = 0
KPD3 190829Z 34027G34KT 00/M05 A3009 RMK A01 T00031047  RH  069%=      5-min Rain = 0
KPD3 190830Z 34030G35KT 00/M05 A3009 RMK A01 T00031047  RH  069%=      5-min Rain = 0
KPD3 190831Z 34026G33KT 00/M05 A301 RMK A01 T00031047  RH  069%=      5-min Rain = 0
KPD3 190832Z 34025G30KT 00/M05 A301 RMK A01 T00031047  RH  069%=      5-min Rain = 0
KPD3 190833Z 34024KT 00/M05 A301 RMK A01 T00031047  RH  069%=      5-min Rain = 0
KPD3 190834Z 34021G29KT 00/M05 A301 RMK A01 T00031047  RH  069%=      5-min Rain = 0
KPD3 190835Z 33020G25KT 00/M05 A301 RMK A01 T00021047  RH  070%=      5-min Rain = 0
KPD3 190836Z 33021G28KT 00/M05 A301 RMK A01 T00021047  RH  070%=      5-min Rain = 0
KPD3 190837Z 33026G31KT 00/M05 A301 RMK A01 T00021047  RH  070%=      5-min Rain = 0
KPD3 190838Z 34022G27KT 00/M05 A301 RMK A01 T00011047  RH  070%=      5-min Rain = 0
KPD3 190839Z 34020G25KT 00/M05 A301 RMK A01 T00011047  RH  070%=      5-min Rain = 0
KPD3 190840Z 34023G32KT 00/M05 A301 RMK A01 T00011047  RH  070%=      5-min Rain = 0
KPD3 190841Z 34018G23KT 00/M05 A3011 RMK A01 T00011047  RH  070%=      5-min Rain = 0
KPD3 190842Z 34019KT 00/M05 A3011 RMK A01 T00011047  RH  070%=      5-min Rain = 0
KPD3 190843Z 34024G33KT 00/M05 A301 RMK A01 T00011047  RH  070%=      5-min Rain = 0
KPD3 190844Z 34026KT 00/05 A3011 RMK A01 T00000-47  RH  070%=      5-min Rain = 0
KPD3 190845Z 34025KT 00/M05 A3011 RMK A01 T00011048  RH  070%=      5-min Rain = 0
KPD3 190846Z 34023KT 00/M05 A3011 RMK A01 T00011048  RH  070%=      5-min Rain = 0
KPD3 190847Z 34025KT 00/M05 A3011 RMK A01 T00011048  RH  070%=      5-min Rain = 0
KPD3 190848Z 34026KT 00/M05 A3011 RMK A01 T00011048  RH  070%=      5-min Rain = 0
KPD3 190849Z 34023KT 00/05 A3011 RMK A01 T00000-48  RH  070%=      5-min Rain = 0
KPD3 190850Z 34019KT 00/05 A3011 RMK A01 T00000-48  RH  070%=      5-min Rain = 0
KPD3 190851Z 33018G23KT 00/05 A3011 RMK A01 T00-00-48  RH  070%=      5-min Rain = 0
KPD3 190852Z 33020KT M00/M05 A3011 RMK A01 T10011048  RH  070%=      5-min Rain = 0
KPD3 190853Z 34019G24KT M00/M05 A3012 RMK A01 T10011048  RH  071%=      5-min Rain = 0
KPD3 190854Z 33022G29KT M00/M05 A3012 RMK A01 T10021049  RH  071%=      5-min Rain = 0
KPD3 190855Z 33024G34KT M00/M05 A3012 RMK A01 T10021049  RH  071%=      5-min Rain = 0
KPD3 190856Z 33026KT M00/M05 A3012 RMK A01 T10031050  RH  071%=      5-min Rain = 0
KPD3 190857Z 34027KT M00/M05 A3012 RMK A01 T10031050  RH  070%=      5-min Rain = 0
KPD3 190858Z 34024G29KT M00/M05 A3012 RMK A01 T10041051  RH  070%=      5-min Rain = 0
KPD3 190859Z 34021G27KT M00/M05 A3012 RMK A01 T10041052  RH  070%=      5-min Rain = 0
KPD3 190900Z 34022KT M01/M05 A3012 RMK A01 T10051053  RH  070%=      5-min Rain = 0
KPD3 190901Z 34021KT M01/M05 A3012 RMK A01 T10051053  RH  070%=      5-min Rain = 0
KPD3 190902Z 34024G29KT M01/M05 A3012 RMK A01 T10061053  RH  070%=      5-min Rain = 0
KPD3 190903Z 34023KT M01/M05 A3012 RMK A01 T10061053  RH  070%=      5-min Rain = 0
KPD3 190904Z 34019G26KT M01/M05 A3012 RMK A01 T10061054  RH  070%=      5-min Rain = 0
KPD3 190905Z 33022KT M01/M05 A3012 RMK A01 T10071054  RH  070%=      5-min Rain = 0
KPD3 190906Z 34018G28KT M01/M06 A3012 RMK A01 T10071055  RH  070%=      5-min Rain = 0
KPD3 190907Z 33024KT M01/M06 A3012 RMK A01 T10081055  RH  071%=      5-min Rain = 0
KPD3 190908Z 33027KT M01/M06 A3012 RMK A01 T10081055  RH  070%=      5-min Rain = 0
KPD3 190909Z 34024G31KT M01/M06 A3012 RMK A01 T10081055  RH  070%=      5-min Rain = 0
KPD3 190910Z 33018KT M01/M06 A3012 RMK A01 T10081055  RH  070%=      5-min Rain = 0
KPD3 190911Z 33023G28KT M01/M06 A3012 RMK A01 T10081055  RH  070%=      5-min Rain = 0
KPD3 190912Z 33022G29KT M01/M06 A3012 RMK A01 T10091055  RH  071%=      5-min Rain = 0
KPD3 190913Z 33025G30KT M01/M06 A3012 RMK A01 T10091055  RH  071%=      5-min Rain = 0
KPD3 190914Z 34024G30KT M01/M06 A3012 RMK A01 T10081055  RH  071%=      5-min Rain = 0
KPD3 190915Z 33019G24KT M01/M06 A3013 RMK A01 T10091055  RH  071%=      5-min Rain = 0
KPD3 190916Z 34020G27KT M01/M06 A3013 RMK A01 T10091056  RH  071%=      5-min Rain = 0
KPD3 190917Z 34028G34KT M01/M06 A3012 RMK A01 T10091056  RH  071%=      5-min Rain = 0
KPD3 190918Z 34023KT M01/M06 A3013 RMK A01 T10101056  RH  071%=      5-min Rain = 0
KPD3 190919Z 33020G28KT M01/M06 A3013 RMK A01 T10101056  RH  071%=      5-min Rain = 0
KPD3 190920Z 33022KT M01/M06 A3013 RMK A01 T10101056  RH  071%=      5-min Rain = 0
KPD3 190921Z 33022KT M01/M06 A3013 RMK A01 T10101056  RH  071%=      5-min Rain = 0
KPD3 190922Z 33023G29KT M01/M06 A3013 RMK A01 T10101056  RH  071%=      5-min Rain = 0
KPD3 190923Z 33021KT M01/M06 A3013 RMK A01 T10101056  RH  071%=      5-min Rain = 0
KPD3 190924Z 34021KT M01/M06 A3013 RMK A01 T10101056  RH  071%=      5-min Rain = 0
KPD3 190925Z 33020G28KT M01/M06 A3013 RMK A01 T10101056  RH  071%=      5-min Rain = 0
KPD3 190926Z 34020G26KT M01/M06 A3013 RMK A01 T10111056  RH  071%=      5-min Rain = 0
KPD3 190927Z 33021G27KT M01/M06 A3013 RMK A01 T10111056  RH  071%=      5-min Rain = 0
KPD3 190928Z 34022KT M01/M06 A3013 RMK A01 T10111056  RH  071%=      5-min Rain = 0
KPD3 190929Z 34023KT M01/M06 A3013 RMK A01 T10111057  RH  071%=      5-min Rain = 0
KPD3 190930Z 33025KT M01/M06 A3013 RMK A01 T10111057  RH  071%=      5-min Rain = 0
KPD3 190931Z 34022KT M01/M06 A3013 RMK A01 T10101057  RH  071%=      5-min Rain = 0
KPD3 190932Z 33022KT M01/M06 A3014 RMK A01 T10111057  RH  071%=      5-min Rain = 0
KPD3 190933Z 33023G28KT M01/M06 A3014 RMK A01 T10111057  RH  071%=      5-min Rain = 0
KPD3 190934Z 34019KT M01/M06 A3014 RMK A01 T10111057  RH  071%=      5-min Rain = 0
KPD3 190935Z 33017KT M01/M06 A3014 RMK A01 T10111057  RH  071%=      5-min Rain = 0
KPD3 190936Z 34019G25KT M01/M06 A3014 RMK A01 T10121057  RH  071%=      5-min Rain = 0
KPD3 190937Z 34019KT M01/M06 A3014 RMK A01 T10121057  RH  071%=      5-min Rain = 0
KPD3 190938Z 34018KT M01/M06 A3014 RMK A01 T10121057  RH  071%=      5-min Rain = 0
KPD3 190939Z 34016KT M01/M06 A3014 RMK A01 T10121058  RH  071%=      5-min Rain = 0
KPD3 190940Z 34020KT M01/M06 A3014 RMK A01 T10131058  RH  071%=      5-min Rain = 0
KPD3 190941Z 34016G22KT M01/M06 A3014 RMK A01 T10131058  RH  071%=      5-min Rain = 0
KPD3 190942Z 33021KT M01/M06 A3014 RMK A01 T10131058  RH  071%=      5-min Rain = 0
KPD3 190943Z 33018G23KT M01/M06 A3014 RMK A01 T10131058  RH  071%=      5-min Rain = 0
KPD3 190944Z 33024G30KT M01/M06 A3014 RMK A01 T10131059  RH  071%=      5-min Rain = 0
KPD3 190945Z 34022G27KT M01/M06 A3014 RMK A01 T10131059  RH  071%=      5-min Rain = 0
KPD3 190946Z 34019G24KT M01/M06 A3014 RMK A01 T10131059  RH  071%=      5-min Rain = 0
KPD3 190947Z 34021KT M01/M06 A3014 RMK A01 T10131059  RH  071%=      5-min Rain = 0
KPD3 190948Z 34020KT M01/M06 A3014 RMK A01 T10131059  RH  071%=      5-min Rain = 0
KPD3 190949Z 34019G25KT M01/M06 A3014 RMK A01 T10131059  RH  071%=      5-min Rain = 0
KPD3 190950Z 33017G24KT M01/M06 A3014 RMK A01 T10131059  RH  071%=      5-min Rain = 0
KPD3 190951Z 33020G26KT M01/M06 A3014 RMK A01 T10131060  RH  071%=      5-min Rain = 0
KPD3 190952Z 33023G29KT M01/M06 A3014 RMK A01 T10131059  RH  071%=      5-min Rain = 0
KPD3 190953Z 33024KT M01/M06 A3014 RMK A01 T10131059  RH  071%=      5-min Rain = 0
KPD3 190954Z 33019KT M01/M06 A3015 RMK A01 T10121059  RH  071%=      5-min Rain = 0
KPD3 190955Z 33022KT M01/M06 A3015 RMK A01 T10121059  RH  071%=      5-min Rain = 0
KPD3 190956Z 33022KT M01/M06 A3015 RMK A01 T10121059  RH  071%=      5-min Rain = 0
KPD3 190957Z 33017KT M01/M06 A3015 RMK A01 T10121059  RH  071%=      5-min Rain = 0
KPD3 190958Z 33017KT M01/M06 A3015 RMK A01 T10121058  RH  071%=      5-min Rain = 0
KPD3 190959Z 33018KT M01/M06 A3015 RMK A01 T10121058  RH  071%=      5-min Rain = 0
KPD3 191000Z 34023KT M01/M06 A3015 RMK A01 T10121058  RH  071%=      5-min Rain = 0
KPD3 191001Z 34020G28KT M01/M06 A3015 RMK A01 T10121058  RH  071%=      5-min Rain = 0
KPD3 191002Z 33021KT M01/M06 A3015 RMK A01 T10121058  RH  071%=      5-min Rain = 0
KPD3 191003Z 33017G22KT M01/M06 A3015 RMK A01 T10121058  RH  071%=      5-min Rain = 0
KPD3 191004Z 33021KT M01/M06 A3015 RMK A01 T10121058  RH  071%=      5-min Rain = 0
KPD3 191005Z 33019KT M01/M06 A3015 RMK A01 T10111057  RH  071%=      5-min Rain = 0
KPD3 191006Z 33014KT M01/M06 A3016 RMK A01 T10111057  RH  071%=      5-min Rain = 0
KPD3 191007Z 33020G25KT M01/M06 A3016 RMK A01 T10111057  RH  071%=      5-min Rain = 0
KPD3 191008Z 33022KT M01/M06 A3016 RMK A01 T10111057  RH  071%=      5-min Rain = 0
KPD3 191009Z 33021G27KT M01/M06 A3016 RMK A01 T10111057  RH  071%=      5-min Rain = 0
KPD3 191010Z 33020KT M01/M06 A3016 RMK A01 T10111057  RH  071%=      5-min Rain = 0
KPD3 191011Z 33017KT M01/M06 A3016 RMK A01 T10111057  RH  071%=      5-min Rain = 0
KPD3 191012Z 34016KT M01/M06 A3016 RMK A01 T10111057  RH  071%=      5-min Rain = 0
KPD3 191013Z 34018G24KT M01/M06 A3016 RMK A01 T10111057  RH  071%=      5-min Rain = 0
KPD3 191014Z 33017KT M01/M06 A3016 RMK A01 T10101057  RH  071%=      5-min Rain = 0
KPD3 191015Z 33018G24KT M01/M06 A3016 RMK A01 T10101057  RH  071%=      5-min Rain = 0
KPD3 191016Z 33018KT M01/M06 A3016 RMK A01 T10111057  RH  071%=      5-min Rain = 0
KPD3 191017Z 33018G23KT M01/M06 A3016 RMK A01 T10101057  RH  071%=      5-min Rain = 0
KPD3 191018Z 33019KT M01/M06 A3016 RMK A01 T10101057  RH  071%=      5-min Rain = 0
KPD3 191019Z 33019KT M01/M06 A3016 RMK A01 T10101056  RH  071%=      5-min Rain = 0
KPD3 191020Z 34021KT M01/M06 A3016 RMK A01 T10101057  RH  070%=      5-min Rain = 0
KPD3 191021Z 33020KT M01/M06 A3016 RMK A01 T10091057  RH  070%=      5-min Rain = 0
KPD3 191022Z 33020KT M01/M06 A3016 RMK A01 T10091057  RH  070%=      5-min Rain = 0
KPD3 191023Z 33019G24KT M01/M06 A3016 RMK A01 T10091057  RH  070%=      5-min Rain = 0
KPD3 191024Z 34022KT M01/M06 A3016 RMK A01 T10091057  RH  070%=      5-min Rain = 0
KPD3 191025Z 34019G24KT M01/M06 A3016 RMK A01 T10091057  RH  070%=      5-min Rain = 0
KPD3 191026Z 33015KT M01/M06 A3016 RMK A01 T10091056  RH  070%=      5-min Rain = 0
KPD3 191027Z 33015KT M01/M06 A3016 RMK A01 T10091057  RH  070%=      5-min Rain = 0
KPD3 191028Z 33014G21KT M01/M06 A3016 RMK A01 T10101057  RH  070%=      5-min Rain = 0
KPD3 191029Z 33021KT M01/M06 A3016 RMK A01 T10101056  RH  071%=      5-min Rain = 0
KPD3 191030Z 33016KT M01/M06 A3016 RMK A01 T10101055  RH  071%=      5-min Rain = 0
KPD3 191031Z 34016KT M01/M06 A3016 RMK A01 T10101055  RH  071%=      5-min Rain = 0
KPD3 191032Z 33017KT M01/M06 A3017 RMK A01 T10101055  RH  071%=      5-min Rain = 0
KPD3 191033Z 33016KT M01/M06 A3017 RMK A01 T10091055  RH  071%=      5-min Rain = 0
KPD3 191034Z 33013KT M01/M05 A3017 RMK A01 T10101054  RH  072%=      5-min Rain = 0
KPD3 191035Z 33016KT M01/M05 A3017 RMK A01 T10101054  RH  072%=      5-min Rain = 0
KPD3 191036Z 33015KT M01/M05 A3017 RMK A01 T10101054  RH  072%=      5-min Rain = 0
KPD3 191037Z 33017KT M01/M05 A3017 RMK A01 T10101054  RH  072%=      5-min Rain = 0
KPD3 191038Z 33014KT M01/M05 A3017 RMK A01 T10101054  RH  072%=      5-min Rain = 0
KPD3 191039Z 33015KT M01/M05 A3017 RMK A01 T10101054  RH  072%=      5-min Rain = 0
KPD3 191040Z 33015KT M01/M05 A3016 RMK A01 T10101054  RH  072%=      5-min Rain = 0
KPD3 191041Z 33012KT M01/M05 A3016 RMK A01 T10101053  RH  072%=      5-min Rain = 0
KPD3 191042Z 33012KT M01/M05 A3016 RMK A01 T10101053  RH  073%=      5-min Rain = 0
KPD3 191043Z 33014KT M01/M05 A3016 RMK A01 T10101053  RH  073%=      5-min Rain = 0
KPD3 191044Z 33014KT M01/M05 A3016 RMK A01 T10111053  RH  073%=      5-min Rain = 0
KPD3 191045Z 33013KT M01/M05 A3016 RMK A01 T10101053  RH  073%=      5-min Rain = 0
KPD3 191046Z 34011G16KT M01/M05 A3016 RMK A01 T10111053  RH  073%=      5-min Rain = 0
KPD3 191047Z 34013KT M01/M05 A3016 RMK A01 T10101053  RH  073%=      5-min Rain = 0
KPD3 191048Z 34015G20KT M01/M05 A3016 RMK A01 T10111052  RH  073%=      5-min Rain = 0
KPD3 191049Z 33016G21KT M01/M05 A3016 RMK A01 T10101052  RH  073%=      5-min Rain = 0
KPD3 191050Z 33016G21KT M01/M05 A3016 RMK A01 T10101052  RH  073%=      5-min Rain = 0
KPD3 191051Z 34017G22KT M01/M05 A3016 RMK A01 T10091051  RH  073%=      5-min Rain = 0
KPD3 191052Z 33017KT M01/M05 A3016 RMK A01 T10091051  RH  073%=      5-min Rain = 0
KPD3 191053Z 34018G24KT M01/M05 A3016 RMK A01 T10091051  RH  073%=      5-min Rain = 0
KPD3 191054Z 33020KT M01/M05 A3016 RMK A01 T10091051  RH  073%=      5-min Rain = 0
KPD3 191055Z 33019KT M01/M05 A3016 RMK A01 T10081050  RH  073%=      5-min Rain = 0
KPD3 191056Z 33018KT M01/M05 A3017 RMK A01 T10081050  RH  073%=      5-min Rain = 0
KPD3 191057Z 33019KT M01/M05 A3016 RMK A01 T10081050  RH  073%=      5-min Rain = 0
KPD3 191058Z 33016KT M01/M05 A3016 RMK A01 T10081050  RH  073%=      5-min Rain = 0
KPD3 191059Z 33015KT M01/M05 A3017 RMK A01 T10081050  RH  073%=      5-min Rain = 0
KPD3 191100Z 33017KT M01/M05 A3017 RMK A01 T10081050  RH  073%=      5-min Rain = 0
KPD3 191101Z 33018KT M01/M05 A3016 RMK A01 T10081050  RH  073%=      5-min Rain = 0
KPD3 191102Z 33017KT M01/M05 A3016 RMK A01 T10081049  RH  073%=      5-min Rain = 0
KPD3 191103Z 33014KT M01/M05 A3017 RMK A01 T10081049  RH  074%=      5-min Rain = 0
KPD3 191104Z 33011KT M01/M05 A3017 RMK A01 T10081049  RH  074%=      5-min Rain = 0
KPD3 191105Z 33016G22KT M01/M05 A3017 RMK A01 T10091050  RH  074%=      5-min Rain = 0
KPD3 191106Z 33018G23KT M01/M05 A3016 RMK A01 T10091049  RH  074%=      5-min Rain = 0
KPD3 191107Z 33014KT M01/M05 A3017 RMK A01 T10081048  RH  074%=      5-min Rain = 0
KPD3 191108Z 33013KT M01/M05 A3017 RMK A01 T10081048  RH  074%=      5-min Rain = 0
KPD3 191109Z 33012KT M01/M05 A3017 RMK A01 T10091049  RH  074%=      5-min Rain = 0
KPD3 191110Z 32014KT M01/M05 A3017 RMK A01 T10091049  RH  075%=      5-min Rain = 0
KPD3 191111Z 32017KT M01/M05 A3017 RMK A01 T10091049  RH  075%=      5-min Rain = 0
KPD3 191112Z 32015KT M01/M05 A3017 RMK A01 T10091048  RH  075%=      5-min Rain = 0
KPD3 191113Z 33015KT M01/M05 A3017 RMK A01 T10091048  RH  074%=      5-min Rain = 0
KPD3 191114Z 33013KT M01/M05 A3017 RMK A01 T10081048  RH  074%=      5-min Rain = 0
KPD3 191115Z 33011KT M01/M05 A3017 RMK A01 T10091049  RH  074%=      5-min Rain = 0
KPD3 191116Z 32009KT M01/M05 A3017 RMK A01 T10101049  RH  075%=      5-min Rain = 0
KPD3 191117Z 32008KT M01/M05 A3017 RMK A01 T10111050  RH  075%=      5-min Rain = 0
KPD3 191118Z 32008KT M01/M05 A3017 RMK A01 T10131050  RH  076%=      5-min Rain = 0
KPD3 191119Z 31008KT M01/M05 A3017 RMK A01 T10131050  RH  076%=      5-min Rain = 0
KPD3 191120Z 32012KT M01/M05 A3017 RMK A01 T10131050  RH  076%=      5-min Rain = 0
KPD3 191121Z 32012KT M01/M05 A3017 RMK A01 T10131048  RH  077%=      5-min Rain = 0
KPD3 191122Z 33014KT M01/M05 A3017 RMK A01 T10121048  RH  076%=      5-min Rain = 0
KPD3 191123Z 33013KT M01/M05 A3017 RMK A01 T10111048  RH  076%=      5-min Rain = 0
KPD3 191124Z 32016G22KT M01/M05 A3018 RMK A01 T10111048  RH  076%=      5-min Rain = 0
KPD3 191125Z 32015G22KT M01/M05 A3018 RMK A01 T10101048  RH  076%=      5-min Rain = 0
KPD3 191126Z 33014G19KT M01/M05 A3018 RMK A01 T10101048  RH  075%=      5-min Rain = 0
KPD3 191127Z 33015KT M01/M05 A3018 RMK A01 T10101048  RH  075%=      5-min Rain = 0
KPD3 191128Z 33013KT M01/M05 A3018 RMK A01 T10101048  RH  075%=      5-min Rain = 0
KPD3 191129Z 33017KT M01/M05 A3018 RMK A01 T10101048  RH  075%=      5-min Rain = 0
KPD3 191130Z 32014KT M01/M05 A3018 RMK A01 T10101048  RH  075%=      5-min Rain = 0
KPD3 191131Z 32012KT M01/M05 A3018 RMK A01 T10101049  RH  075%=      5-min Rain = 0
KPD3 191132Z 33012KT M01/M05 A3018 RMK A01 T10101049  RH  075%=      5-min Rain = 0
KPD3 191133Z 33017G22KT M01/M05 A3018 RMK A01 T10111049  RH  075%=      5-min Rain = 0
KPD3 191134Z 33017KT M01/M05 A3018 RMK A01 T10101049  RH  075%=      5-min Rain = 0
KPD3 191135Z 34021KT M01/M05 A3018 RMK A01 T10091049  RH  074%=      5-min Rain = 0
KPD3 191136Z 33018KT M01/M05 A3018 RMK A01 T10091050  RH  074%=      5-min Rain = 0
KPD3 191137Z 33020G27KT M01/M05 A3018 RMK A01 T10091050  RH  074%=      5-min Rain = 0
KPD3 191138Z 33019KT M01/M05 A3018 RMK A01 T10091050  RH  074%=      5-min Rain = 0
KPD3 191139Z 33016KT M01/M05 A3018 RMK A01 T10091051  RH  073%=      5-min Rain = 0
KPD3 191140Z 33018KT M01/M05 A3018 RMK A01 T10091051  RH  073%=      5-min Rain = 0
KPD3 191141Z 33022KT M01/M05 A3018 RMK A01 T10091050  RH  074%=      5-min Rain = 0
KPD3 191142Z 33022KT M01/M05 A3018 RMK A01 T10091051  RH  073%=      5-min Rain = 0
KPD3 191143Z 33020KT M01/M05 A3018 RMK A01 T10091051  RH  073%=      5-min Rain = 0
KPD3 191144Z 33023G28KT M01/M05 A3018 RMK A01 T10091051  RH  073%=      5-min Rain = 0
KPD3 191145Z 33020G28KT M01/M05 A3018 RMK A01 T10091052  RH  073%=      5-min Rain = 0
KPD3 191146Z 33024KT M01/M05 A3018 RMK A01 T10091052  RH  073%=      5-min Rain = 0
KPD3 191147Z 33019KT M01/M05 A3018 RMK A01 T10091052  RH  073%=      5-min Rain = 0
KPD3 191148Z 33019KT M01/M05 A3018 RMK A01 T10091051  RH  073%=      5-min Rain = 0
KPD3 191149Z 33019KT M01/M05 A3018 RMK A01 T10091051  RH  073%=      5-min Rain = 0
KPD3 191150Z 33023KT M01/M05 A3018 RMK A01 T10101052  RH  073%=      5-min Rain = 0
KPD3 191151Z 33017KT M01/M05 A3019 RMK A01 T10101052  RH  073%=      5-min Rain = 0
KPD3 191152Z 33016KT M01/M05 A3019 RMK A01 T10091051  RH  073%=      5-min Rain = 0
KPD3 191153Z 33015KT M01/M05 A3019 RMK A01 T10101052  RH  073%=      5-min Rain = 0
KPD3 191154Z 33020G25KT M01/M05 A3019 RMK A01 T10101052  RH  074%=      5-min Rain = 0
KPD3 191155Z 33018G25KT M01/M05 A3019 RMK A01 T10101051  RH  074%=      5-min Rain = 0
KPD3 191156Z 33016KT M01/M05 A3019 RMK A01 T10101051  RH  074%=      5-min Rain = 0
KPD3 191157Z 33016KT M01/M05 A3019 RMK A01 T10101051  RH  074%=      5-min Rain = 0
KPD3 191158Z 32017KT M01/M05 A3019 RMK A01 T10101051  RH  074%=      5-min Rain = 0
KPD3 191159Z 33019G24KT M01/M05 A3019 RMK A01 T10111051  RH  074%=      5-min Rain = 0
KPD3 191200Z 33017G22KT M01/M05 A3019 RMK A01 T10101051  RH  074%=      5-min Rain = 0
KPD3 191201Z 33014KT M01/M05 A3019 RMK A01 T10111051  RH  074%=      5-min Rain = 0
KPD3 191202Z 32017KT M01/M05 A3019 RMK A01 T10111051  RH  074%=      5-min Rain = 0
KPD3 191203Z 33014KT M01/M05 A3019 RMK A01 T10111051  RH  074%=      5-min Rain = 0
KPD3 191204Z 32014KT M01/M05 A3019 RMK A01 T10111051  RH  074%=      5-min Rain = 0
KPD3 191205Z 33014KT M01/M05 A3019 RMK A01 T10111051  RH  075%=      5-min Rain = 0
KPD3 191206Z 32014KT M01/M05 A3019 RMK A01 T10121051  RH  075%=      5-min Rain = 0
KPD3 191207Z 32015G26KT M01/M05 A3019 RMK A01 T10121051  RH  075%=      5-min Rain = 0
KPD3 191208Z 32019G26KT M01/M05 A3019 RMK A01 T10121050  RH  075%=      5-min Rain = 0
KPD3 191209Z 32017G22KT M01/M05 A3019 RMK A01 T10111051  RH  075%=      5-min Rain = 0
KPD3 191210Z 33017KT M01/M05 A3019 RMK A01 T10111051  RH  074%=      5-min Rain = 0
KPD3 191211Z 33016G21KT M01/M05 A302 RMK A01 T10111051  RH  074%=      5-min Rain = 0
KPD3 191212Z 33014KT M01/M05 A3019 RMK A01 T10111051  RH  074%=      5-min Rain = 0
KPD3 191213Z 33015G21KT M01/M05 A3019 RMK A01 T10111051  RH  074%=      5-min Rain = 0
KPD3 191214Z 33020KT M01/M05 A3019 RMK A01 T10121051  RH  074%=      5-min Rain = 0
KPD3 191215Z 34020KT M01/M05 A302 RMK A01 T10111051  RH  074%=      5-min Rain = 0
KPD3 191216Z 33017KT M01/M05 A302 RMK A01 T10111051  RH  074%=      5-min Rain = 0
KPD3 191217Z 33013KT M01/M05 A302 RMK A01 T10111051  RH  074%=      5-min Rain = 0
KPD3 191218Z 32013KT M01/M05 A302 RMK A01 T10121052  RH  074%=      5-min Rain = 0
KPD3 191219Z 32012KT M01/M05 A302 RMK A01 T10131052  RH  075%=      5-min Rain = 0
KPD3 191220Z 32010KT M01/M05 A302 RMK A01 T10131052  RH  075%=      5-min Rain = 0
KPD3 191221Z 32009KT M01/M05 A302 RMK A01 T10141052  RH  075%=      5-min Rain = 0
KPD3 191222Z 32008KT M02/M05 A302 RMK A01 T10151052  RH  076%=      5-min Rain = 0
KPD3 191223Z 32007KT M02/M05 A302 RMK A01 T10161053  RH  076%=      5-min Rain = 0
KPD3 191224Z 33008G14KT M02/M05 A302 RMK A01 T10171052  RH  077%=      5-min Rain = 0
KPD3 191225Z 32012KT M02/M05 A302 RMK A01 T10171052  RH  077%=      5-min Rain = 0
KPD3 191226Z 32013KT M02/M05 A302 RMK A01 T10161050  RH  078%=      5-min Rain = 0
KPD3 191227Z 32011KT M02/M05 A302 RMK A01 T10151049  RH  078%=      5-min Rain = 0
KPD3 191228Z 32012KT M02/M05 A302 RMK A01 T10151049  RH  077%=      5-min Rain = 0
KPD3 191229Z 33012KT M02/M05 A3021 RMK A01 T10151049  RH  077%=      5-min Rain = 0
KPD3 191230Z 33013KT M01/M05 A3021 RMK A01 T10141049  RH  077%=      5-min Rain = 0
KPD3 191231Z 33011KT M01/M05 A3021 RMK A01 T10141049  RH  077%=      5-min Rain = 0
KPD3 191232Z 33015KT M01/M05 A3021 RMK A01 T10141049  RH  077%=      5-min Rain = 0
KPD3 191233Z 32012KT M01/M05 A3021 RMK A01 T10131048  RH  077%=      5-min Rain = 0
KPD3 191234Z 33012KT M01/M05 A3021 RMK A01 T10131049  RH  077%=      5-min Rain = 0
KPD3 191235Z 32015KT M01/M05 A3021 RMK A01 T10131049  RH  077%=      5-min Rain = 0
KPD3 191236Z 33015KT M01/M05 A3021 RMK A01 T10121048  RH  077%=      5-min Rain = 0
KPD3 191237Z 33012KT M01/M05 A3021 RMK A01 T10121049  RH  076%=      5-min Rain = 0
KPD3 191238Z 32011KT M01/M05 A3021 RMK A01 T10121049  RH  076%=      5-min Rain = 0
KPD3 191239Z 33014KT M01/M05 A3021 RMK A01 T10121049  RH  076%=      5-min Rain = 0
KPD3 191240Z 33012KT M01/M05 A3021 RMK A01 T10121048  RH  076%=      5-min Rain = 0
KPD3 191241Z 33013KT M01/M05 A3021 RMK A01 T10121048  RH  076%=      5-min Rain = 0
KPD3 191242Z 34015KT M01/M05 A3021 RMK A01 T10121048  RH  076%=      5-min Rain = 0
KPD3 191243Z 34015KT M01/M05 A3021 RMK A01 T10111048  RH  076%=      5-min Rain = 0
KPD3 191244Z 34016KT M01/M05 A3021 RMK A01 T10111048  RH  076%=      5-min Rain = 0
KPD3 191245Z 33014KT M01/M05 A3021 RMK A01 T10101048  RH  076%=      5-min Rain = 0
KPD3 191246Z 33015KT M01/M05 A3021 RMK A01 T10101048  RH  075%=      5-min Rain = 0
KPD3 191247Z 33012KT M01/M05 A3021 RMK A01 T10101048  RH  075%=      5-min Rain = 0
KPD3 191248Z 33013KT M01/M05 A3021 RMK A01 T10101048  RH  075%=      5-min Rain = 0
KPD3 191249Z 33011KT M01/M05 A3022 RMK A01 T10101048  RH  075%=      5-min Rain = 0
KPD3 191250Z 33011KT M01/M05 A3022 RMK A01 T10101048  RH  075%=      5-min Rain = 0
KPD3 191251Z 34013KT M01/M05 A3021 RMK A01 T10101048  RH  075%=      5-min Rain = 0
KPD3 191252Z 33012KT M01/M05 A3022 RMK A01 T10091048  RH  075%=      5-min Rain = 0
KPD3 191253Z 34014KT M01/M05 A3022 RMK A01 T10091048  RH  075%=      5-min Rain = 0
KPD3 191254Z 33011KT M01/M05 A3022 RMK A01 T10091048  RH  075%=      5-min Rain = 0
KPD3 191255Z 33013KT M01/M05 A3022 RMK A01 T10091048  RH  075%=      5-min Rain = 0
KPD3 191256Z 33012KT M01/M05 A3022 RMK A01 T10091048  RH  075%=      5-min Rain = 0
KPD3 191257Z 34015KT M01/M05 A3022 RMK A01 T10091048  RH  075%=      5-min Rain = 0
KPD3 191258Z 33012KT M01/M05 A3022 RMK A01 T10091047  RH  075%=      5-min Rain = 0
KPD3 191259Z 34011KT M01/M05 A3022 RMK A01 T10081048  RH  075%=      5-min Rain = 0
KPD3 191300Z 34012KT M01/M05 A3022 RMK A01 T10081048  RH  075%=      5-min Rain = 0
KPD3 191301Z 34010KT M01/M05 A3022 RMK A01 T10081048  RH  075%=      5-min Rain = 0
KPD3 191302Z 34015KT M01/M05 A3022 RMK A01 T10081047  RH  075%=      5-min Rain = 0
KPD3 191303Z 32014KT M01/M05 A3022 RMK A01 T10081048  RH  075%=      5-min Rain = 0
KPD3 191304Z 33014KT M01/M05 A3023 RMK A01 T10091048  RH  075%=      5-min Rain = 0
KPD3 191305Z 33013KT M01/M05 A3023 RMK A01 T10081047  RH  075%=      5-min Rain = 0
KPD3 191306Z 34011KT M01/M05 A3023 RMK A01 T10081048  RH  075%=      5-min Rain = 0
KPD3 191307Z 33011KT M01/M05 A3023 RMK A01 T10081048  RH  075%=      5-min Rain = 0
KPD3 191308Z 33015KT M01/M05 A3023 RMK A01 T10081047  RH  075%=      5-min Rain = 0
KPD3 191309Z 33017KT M01/M05 A3023 RMK A01 T10081047  RH  075%=      5-min Rain = 0
KPD3 191310Z 33014KT M01/M05 A3023 RMK A01 T10071047  RH  074%=      5-min Rain = 0
KPD3 191311Z 33012KT M01/M05 A3023 RMK A01 T10071047  RH  074%=      5-min Rain = 0
KPD3 191312Z 33014G19KT M01/M05 A3023 RMK A01 T10071047  RH  074%=      5-min Rain = 0
KPD3 191313Z 33014KT M01/M05 A3023 RMK A01 T10071047  RH  074%=      5-min Rain = 0
KPD3 191314Z 33013KT M01/M05 A3023 RMK A01 T10071047  RH  074%=      5-min Rain = 0
KPD3 191315Z 33012G17KT M01/M05 A3023 RMK A01 T10071047  RH  074%=      5-min Rain = 0
KPD3 191316Z 34012KT M01/M05 A3023 RMK A01 T10071048  RH  074%=      5-min Rain = 0
KPD3 191317Z 33012KT M01/M05 A3023 RMK A01 T10071047  RH  074%=      5-min Rain = 0
KPD3 191318Z 33011KT M01/M05 A3023 RMK A01 T10071047  RH  074%=      5-min Rain = 0
KPD3 191319Z 33016G22KT M01/M05 A3023 RMK A01 T10081048  RH  074%=      5-min Rain = 0
KPD3 191320Z 33015KT M01/M05 A3023 RMK A01 T10081048  RH  074%=      5-min Rain = 0
KPD3 191321Z 33014KT M01/M05 A3023 RMK A01 T10081048  RH  074%=      5-min Rain = 0
KPD3 191322Z 33013KT M01/M05 A3023 RMK A01 T10071048  RH  074%=      5-min Rain = 0
KPD3 191323Z 34015KT M01/M05 A3023 RMK A01 T10071048  RH  074%=      5-min Rain = 0
KPD3 191324Z 33015G20KT M01/M05 A3023 RMK A01 T10071048  RH  074%=      5-min Rain = 0
KPD3 191325Z 33017KT M01/M05 A3023 RMK A01 T10071048  RH  074%=      5-min Rain = 0
KPD3 191326Z 33017KT M01/M05 A3023 RMK A01 T10071048  RH  074%=      5-min Rain = 0
KPD3 191327Z 33017KT M01/M05 A3023 RMK A01 T10071048  RH  074%=      5-min Rain = 0
KPD3 191328Z 34017KT M01/M05 A3023 RMK A01 T10071048  RH  074%=      5-min Rain = 0
KPD3 191329Z 34020G25KT M01/M05 A3023 RMK A01 T10071049  RH  074%=      5-min Rain = 0
KPD3 191330Z 34020KT M01/M05 A3023 RMK A01 T10071049  RH  074%=      5-min Rain = 0
KPD3 191331Z 33017KT M01/M05 A3023 RMK A01 T10081049  RH  074%=      5-min Rain = 0
KPD3 191332Z 34017KT M01/M05 A3024 RMK A01 T10081050  RH  074%=      5-min Rain = 0
KPD3 191333Z 34018G23KT M01/M05 A3024 RMK A01 T10091050  RH  074%=      5-min Rain = 0
KPD3 191334Z 34016KT M01/M05 A3023 RMK A01 T10091050  RH  074%=      5-min Rain = 0
KPD3 191335Z 33014KT M01/M05 A3023 RMK A01 T10101050  RH  074%=      5-min Rain = 0
KPD3 191336Z 34016KT M01/M05 A3024 RMK A01 T10101050  RH  074%=      5-min Rain = 0
KPD3 191337Z 34013KT M01/M05 A3024 RMK A01 T10101050  RH  074%=      5-min Rain = 0
KPD3 191338Z 34015KT M01/M05 A3024 RMK A01 T10111051  RH  074%=      5-min Rain = 0
KPD3 191339Z 34015KT M01/M05 A3024 RMK A01 T10111051  RH  075%=      5-min Rain = 0
KPD3 191340Z 33017KT M01/M05 A3024 RMK A01 T10111050  RH  075%=      5-min Rain = 0
KPD3 191341Z 33016KT M01/M05 A3024 RMK A01 T10111050  RH  075%=      5-min Rain = 0
KPD3 191342Z 33019G25KT M01/M05 A3024 RMK A01 T10101050  RH  074%=      5-min Rain = 0
KPD3 191343Z 33015G20KT M01/M05 A3024 RMK A01 T10101050  RH  074%=      5-min Rain = 0
KPD3 191344Z 33017G22KT M01/M05 A3024 RMK A01 T10101050  RH  074%=      5-min Rain = 0
KPD3 191345Z 33015KT M01/M05 A3024 RMK A01 T10101050  RH  074%=      5-min Rain = 0
KPD3 191346Z 33017KT M01/M05 A3024 RMK A01 T10101050  RH  074%=      5-min Rain = 0
KPD3 191347Z 33015KT M01/M05 A3025 RMK A01 T10101050  RH  075%=      5-min Rain = 0
KPD3 191348Z 33012KT M01/M05 A3025 RMK A01 T10111050  RH  075%=      5-min Rain = 0
KPD3 191349Z 33012KT M01/M05 A3025 RMK A01 T10111050  RH  075%=      5-min Rain = 0
KPD3 191350Z 34013KT M01/M05 A3025 RMK A01 T10121050  RH  075%=      5-min Rain = 0
KPD3 191351Z 33014KT M01/M05 A3025 RMK A01 T10121050  RH  075%=      5-min Rain = 0
KPD3 191352Z 33016KT M01/M05 A3025 RMK A01 T10111050  RH  075%=      5-min Rain = 0
KPD3 191353Z 33017KT M01/M05 A3025 RMK A01 T10111050  RH  075%=      5-min Rain = 0
KPD3 191354Z 34015KT M01/M05 A3025 RMK A01 T10111050  RH  074%=      5-min Rain = 0
KPD3 191355Z 34018KT M01/M05 A3025 RMK A01 T10101050  RH  074%=      5-min Rain = 0
KPD3 191356Z 34015G20KT M01/M05 A3025 RMK A01 T10101050  RH  074%=      5-min Rain = 0
KPD3 191357Z 33014KT M01/M05 A3025 RMK A01 T10101050  RH  074%=      5-min Rain = 0
KPD3 191358Z 34015KT M01/M05 A3025 RMK A01 T10101050  RH  074%=      5-min Rain = 0
KPD3 191359Z 34013KT M01/M05 A3025 RMK A01 T10101050  RH  074%=      5-min Rain = 0
KPD3 191400Z 34011KT M01/M05 A3025 RMK A01 T10101050  RH  074%=      5-min Rain = 0
KPD3 191401Z 34013G18KT M01/M05 A3025 RMK A01 T10101049  RH  074%=      5-min Rain = 0
KPD3 191402Z 34013KT M01/M05 A3025 RMK A01 T10091049  RH  074%=      5-min Rain = 0
KPD3 191403Z 33012KT M01/M05 A3025 RMK A01 T10081048  RH  074%=      5-min Rain = 0
KPD3 191404Z 33013KT M01/M05 A3026 RMK A01 T10081048  RH  074%=      5-min Rain = 0
KPD3 191405Z 34013KT M01/M05 A3026 RMK A01 T10071048  RH  074%=      5-min Rain = 0
KPD3 191406Z 34010KT M01/M05 A3026 RMK A01 T10071048  RH  074%=      5-min Rain = 0
KPD3 191407Z 33013KT M01/M05 A3026 RMK A01 T10071048  RH  073%=      5-min Rain = 0
KPD3 191408Z 34014KT M01/M05 A3026 RMK A01 T10061048  RH  073%=      5-min Rain = 0
KPD3 191409Z 33015KT M01/M05 A3026 RMK A01 T10061048  RH  073%=      5-min Rain = 0
KPD3 191410Z 33014KT M01/M05 A3026 RMK A01 T10051048  RH  073%=      5-min Rain = 0
KPD3 191411Z 34015KT M01/M05 A3026 RMK A01 T10051048  RH  073%=      5-min Rain = 0
KPD3 191412Z 34014KT M01/M05 A3026 RMK A01 T10061049  RH  073%=      5-min Rain = 0
KPD3 191413Z 34013KT M01/M05 A3026 RMK A01 T10051048  RH  073%=      5-min Rain = 0
KPD3 191414Z 34015KT M01/M05 A3026 RMK A01 T10051048  RH  073%=      5-min Rain = 0
KPD3 191415Z 34015KT M01/M05 A3026 RMK A01 T10051048  RH  072%=      5-min Rain = 0
KPD3 191416Z 34012KT M01/M05 A3026 RMK A01 T10051048  RH  072%=      5-min Rain = 0
KPD3 191417Z 33013KT M00/M05 A3026 RMK A01 T10041048  RH  073%=      5-min Rain = 0
KPD3 191418Z 33014KT M01/M05 A3026 RMK A01 T10051048  RH  073%=      5-min Rain = 0
KPD3 191419Z 34017KT M00/M05 A3026 RMK A01 T10041048  RH  072%=      5-min Rain = 0
KPD3 191420Z 34016G21KT M00/M05 A3026 RMK A01 T10041048  RH  072%=      5-min Rain = 0
KPD3 191421Z 34013KT M00/M05 A3026 RMK A01 T10031048  RH  072%=      5-min Rain = 0
KPD3 191422Z 33012KT M00/M05 A3026 RMK A01 T10031048  RH  072%=      5-min Rain = 0
KPD3 191423Z 33012KT M00/M05 A3027 RMK A01 T10031047  RH  072%=      5-min Rain = 0
KPD3 191424Z 33015KT M00/M05 A3027 RMK A01 T10031047  RH  072%=      5-min Rain = 0
KPD3 191425Z 33017KT M00/M05 A3027 RMK A01 T10031047  RH  072%=      5-min Rain = 0
KPD3 191426Z 33017KT M00/M05 A3027 RMK A01 T10031047  RH  072%=      5-min Rain = 0
KPD3 191427Z 34020KT M00/M05 A3027 RMK A01 T10031047  RH  072%=      5-min Rain = 0
KPD3 191428Z 33017KT M00/M05 A3027 RMK A01 T10021047  RH  072%=      5-min Rain = 0
KPD3 191429Z 34018KT M00/M05 A3027 RMK A01 T10021047  RH  072%=      5-min Rain = 0
KPD3 191430Z 34015KT M00/M05 A3027 RMK A01 T10021047  RH  071%=      5-min Rain = 0
KPD3 191431Z 33012G17KT M00/M05 A3027 RMK A01 T10021047  RH  072%=      5-min Rain = 0
KPD3 191432Z 33015KT M00/M05 A3027 RMK A01 T10021046  RH  072%=      5-min Rain = 0
KPD3 191433Z 33015KT M00/M05 A3027 RMK A01 T10011046  RH  072%=      5-min Rain = 0
KPD3 191434Z 34017KT M00/M05 A3027 RMK A01 T10011046  RH  072%=      5-min Rain = 0
KPD3 191435Z 34016KT M00/M05 A3027 RMK A01 T10011047  RH  072%=      5-min Rain = 0
KPD3 191436Z 34018KT M00/M05 A3027 RMK A01 T10011046  RH  071%=      5-min Rain = 0
KPD3 191437Z 34014G19KT 00/05 A3027 RMK A01 T00-00-46  RH  072%=      5-min Rain = 0
KPD3 191438Z 34017KT 00/05 A3027 RMK A01 T00000-45  RH  071%=      5-min Rain = 0
KPD3 191439Z 33015KT 00/05 A3028 RMK A01 T00000-46  RH  071%=      5-min Rain = 0
KPD3 191440Z 34015KT 00/M05 A3028 RMK A01 T00011045  RH  071%=      5-min Rain = 0
KPD3 191441Z 34013KT 00/M05 A3028 RMK A01 T00011045  RH  071%=      5-min Rain = 0
KPD3 191442Z 33016G21KT 00/M05 A3028 RMK A01 T00011045  RH  071%=      5-min Rain = 0
KPD3 191443Z 34018KT 00/M05 A3028 RMK A01 T00011045  RH  071%=      5-min Rain = 0
KPD3 191444Z 34017G22KT 00/M05 A3028 RMK A01 T00021045  RH  071%=      5-min Rain = 0
KPD3 191445Z 34016KT 00/M05 A3028 RMK A01 T00021045  RH  071%=      5-min Rain = 0
KPD3 191446Z 34017KT 00/M05 A3028 RMK A01 T00021045  RH  071%=      5-min Rain = 0
KPD3 191447Z 34018KT 00/M05 A3028 RMK A01 T00021045  RH  071%=      5-min Rain = 0
KPD3 191448Z 34016KT 00/M05 A3028 RMK A01 T00031045  RH  071%=      5-min Rain = 0
KPD3 191449Z 34016KT 00/M05 A3029 RMK A01 T00021045  RH  071%=      5-min Rain = 0
KPD3 191450Z 34012KT 00/M05 A3029 RMK A01 T00021045  RH  071%=      5-min Rain = 0
KPD3 191451Z 33012KT 00/M05 A3029 RMK A01 T00021045  RH  071%=      5-min Rain = 0
KPD3 191452Z 33012KT 00/M04 A3029 RMK A01 T00021044  RH  071%=      5-min Rain = 0
KPD3 191453Z 32015G21KT 00/M05 A3028 RMK A01 T00021045  RH  071%=      5-min Rain = 0
KPD3 191454Z 33017KT 00/M05 A3029 RMK A01 T00021045  RH  071%=      5-min Rain = 0
KPD3 191455Z 33019KT 00/M05 A3029 RMK A01 T00021045  RH  071%=      5-min Rain = 0
KPD3 191456Z 34017KT 00/M05 A3029 RMK A01 T00021045  RH  070%=      5-min Rain = 0
KPD3 191457Z 33018KT 00/M05 A3029 RMK A01 T00021045  RH  070%=      5-min Rain = 0
KPD3 191458Z 33016KT 00/M05 A3029 RMK A01 T00021045  RH  071%=      5-min Rain = 0
KPD3 191459Z 33013KT 00/M05 A3029 RMK A01 T00021045  RH  071%=      5-min Rain = 0
KPD3 191500Z 33015G21KT 00/M05 A3029 RMK A01 T00021045  RH  071%=      5-min Rain = 0
KPD3 191501Z 33015G21KT 00/M05 A3029 RMK A01 T00031045  RH  070%=      5-min Rain = 0
KPD3 191502Z 33011KT 00/M05 A3029 RMK A01 T00021045  RH  070%=      5-min Rain = 0
KPD3 191503Z 34014G19KT 00/M04 A3029 RMK A01 T00031044  RH  071%=      5-min Rain = 0
KPD3 191504Z 33013KT 00/M04 A3029 RMK A01 T00031044  RH  070%=      5-min Rain = 0
KPD3 191505Z 33015KT 00/M05 A3029 RMK A01 T00031045  RH  070%=      5-min Rain = 0
KPD3 191506Z 32012KT 00/M05 A303 RMK A01 T00031045  RH  070%=      5-min Rain = 0
KPD3 191507Z 33015G20KT 00/M04 A3029 RMK A01 T00031044  RH  070%=      5-min Rain = 0
KPD3 191508Z 33016KT 00/M05 A303 RMK A01 T00041045  RH  070%=      5-min Rain = 0
KPD3 191509Z 34018KT 00/M05 A303 RMK A01 T00041045  RH  070%=      5-min Rain = 0
KPD3 191510Z 33017KT 00/M05 A303 RMK A01 T00041045  RH  070%=      5-min Rain = 0
KPD3 191511Z 34016KT 00/M05 A303 RMK A01 T00031045  RH  070%=      5-min Rain = 0
KPD3 191512Z 33015KT 00/M05 A303 RMK A01 T00031045  RH  070%=      5-min Rain = 0
KPD3 191513Z 34019KT 00/M05 A303 RMK A01 T00031045  RH  070%=      5-min Rain = 0
KPD3 191514Z 33018KT 00/M05 A303 RMK A01 T00031045  RH  070%=      5-min Rain = 0
KPD3 191515Z 33018KT 00/M05 A303 RMK A01 T00031045  RH  070%=      5-min Rain = 0
KPD3 191516Z 33016KT 00/M05 A303 RMK A01 T00031045  RH  070%=      5-min Rain = 0
KPD3 191517Z 34018KT 00/M04 A3031 RMK A01 T00031044  RH  070%=      5-min Rain = 0
KPD3 191518Z 33019KT 00/M05 A3031 RMK A01 T00031045  RH  070%=      5-min Rain = 0
KPD3 191519Z 34014KT 00/M05 A3031 RMK A01 T00031045  RH  070%=      5-min Rain = 0
KPD3 191520Z 33011KT 00/M04 A3031 RMK A01 T00031044  RH  070%=      5-min Rain = 0
KPD3 191521Z 34015KT 00/M04 A3031 RMK A01 T00041044  RH  070%=      5-min Rain = 0
KPD3 191522Z 34016KT 00/M04 A3031 RMK A01 T00041044  RH  070%=      5-min Rain = 0
KPD3 191523Z 34015KT 00/M05 A3031 RMK A01 T00031045  RH  070%=      5-min Rain = 0
KPD3 191524Z 34013KT 00/M05 A3031 RMK A01 T00031045  RH  070%=      5-min Rain = 0
KPD3 191525Z 33015KT 00/M05 A3031 RMK A01 T00041045  RH  070%=      5-min Rain = 0
KPD3 191526Z 35015KT 00/M05 A3031 RMK A01 T00041045  RH  070%=      5-min Rain = 0
KPD3 191527Z 35015KT 00/M04 A3031 RMK A01 T00041044  RH  070%=      5-min Rain = 0
KPD3 191528Z 35015KT 00/M04 A3031 RMK A01 T00041044  RH  070%=      5-min Rain = 0
KPD3 191529Z 35017KT 01/M04 A3031 RMK A01 T00051044  RH  070%=      5-min Rain = 0
KPD3 191530Z 34014KT 01/M04 A3031 RMK A01 T00051044  RH  070%=      5-min Rain = 0
KPD3 191531Z 34013KT 01/M04 A3031 RMK A01 T00051044  RH  070%=      5-min Rain = 0
KPD3 191532Z 34013G18KT 01/M04 A3031 RMK A01 T00051044  RH  070%=      5-min Rain = 0
KPD3 191533Z 35018KT 01/M04 A3031 RMK A01 T00061043  RH  070%=      5-min Rain = 0
KPD3 191534Z 34014KT 01/M04 A3031 RMK A01 T00061044  RH  069%=      5-min Rain = 0
KPD3 191535Z 34015KT 01/M04 A3031 RMK A01 T00061044  RH  069%=      5-min Rain = 0
KPD3 191536Z 35016KT 01/M04 A3031 RMK A01 T00071043  RH  069%=      5-min Rain = 0
KPD3 191537Z 34017KT 01/M04 A3031 RMK A01 T00081043  RH  069%=      5-min Rain = 0
KPD3 191538Z 34016G21KT 01/M04 A3032 RMK A01 T00081044  RH  068%=      5-min Rain = 0
KPD3 191539Z 33014G20KT 01/M04 A3032 RMK A01 T00081043  RH  068%=      5-min Rain = 0
KPD3 191540Z 33015KT 01/M04 A3032 RMK A01 T00081044  RH  068%=      5-min Rain = 0
KPD3 191541Z 34017G22KT 01/M04 A3032 RMK A01 T00091044  RH  068%=      5-min Rain = 0
KPD3 191542Z 33019KT 01/M05 A3032 RMK A01 T00081045  RH  068%=      5-min Rain = 0
KPD3 191543Z 34019G24KT 01/M05 A3032 RMK A01 T00081045  RH  068%=      5-min Rain = 0
KPD3 191544Z 34021KT 01/M05 A3032 RMK A01 T00081045  RH  067%=      5-min Rain = 0
KPD3 191545Z 35018KT 01/M05 A3032 RMK A01 T00081045  RH  067%=      5-min Rain = 0
KPD3 191546Z 35017KT 01/M05 A3032 RMK A01 T00081046  RH  067%=      5-min Rain = 0
KPD3 191547Z 34017KT 01/M05 A3032 RMK A01 T00081045  RH  068%=      5-min Rain = 0
KPD3 191548Z 34018KT 01/M05 A3032 RMK A01 T00091045  RH  067%=      5-min Rain = 0
KPD3 191549Z 35016KT 01/M05 A3032 RMK A01 T00091045  RH  067%=      5-min Rain = 0
KPD3 191550Z 34015KT 01/M05 A3032 RMK A01 T00091045  RH  068%=      5-min Rain = 0
KPD3 191551Z 36012KT 01/M04 A3032 RMK A01 T00091044  RH  067%=      5-min Rain = 0
KPD3 191552Z 00016KT 01/M04 A3032 RMK A01 T00111043  RH  067%=      5-min Rain = 0
KPD3 191553Z 00017KT 01/M05 A3032 RMK A01 T00101045  RH  067%=      5-min Rain = 0
KPD3 191554Z 35017KT 01/M04 A3032 RMK A01 T00101044  RH  067%=      5-min Rain = 0
KPD3 191555Z 34017KT 01/M05 A3032 RMK A01 T00101045  RH  067%=      5-min Rain = 0
KPD3 191556Z 35018KT 01/M05 A3032 RMK A01 T00101045  RH  067%=      5-min Rain = 0
KPD3 191557Z 35018KT 01/M05 A3032 RMK A01 T00111045  RH  067%=      5-min Rain = 0
KPD3 191558Z 35016KT 01/M05 A3032 RMK A01 T00101045  RH  067%=      5-min Rain = 0
KPD3 191559Z 35017KT 01/M04 A3032 RMK A01 T00111043  RH  067%=      5-min Rain = 0
KPD3 191600Z 35017KT 01/M04 A3032 RMK A01 T00121044  RH  066%=      5-min Rain = 0
KPD3 191601Z 36015KT 01/M04 A3032 RMK A01 T00111044  RH  067%=      5-min Rain = 0
KPD3 191602Z 34014KT 01/M04 A3032 RMK A01 T00111044  RH  067%=      5-min Rain = 0
KPD3 191603Z 35018KT 01/M04 A3032 RMK A01 T00121044  RH  066%=      5-min Rain = 0
KPD3 191604Z 35018KT 01/M05 A3032 RMK A01 T00111045  RH  066%=      5-min Rain = 0
KPD3 191605Z 36018KT 01/M05 A3032 RMK A01 T00111045  RH  066%=      5-min Rain = 0
KPD3 191606Z 00017KT 01/M04 A3033 RMK A01 T00111044  RH  067%=      5-min Rain = 0
KPD3 191607Z 00016KT 01/M05 A3033 RMK A01 T00101045  RH  067%=      5-min Rain = 0
KPD3 191608Z 35013KT 01/M05 A3033 RMK A01 T00091045  RH  067%=      5-min Rain = 0
KPD3 191609Z 34017KT 01/M04 A3033 RMK A01 T00091044  RH  067%=      5-min Rain = 0
KPD3 191610Z 34016KT 01/M04 A3033 RMK A01 T00101044  RH  067%=      5-min Rain = 0
KPD3 191611Z 35017KT 01/M05 A3033 RMK A01 T00101045  RH  067%=      5-min Rain = 0
KPD3 191612Z 36018KT 01/M05 A3033 RMK A01 T00091045  RH  067%=      5-min Rain = 0
KPD3 191613Z 35019KT 01/M04 A3033 RMK A01 T00101044  RH  067%=      5-min Rain = 0
KPD3 191614Z 35021KT 01/M05 A3033 RMK A01 T00091045  RH  067%=      5-min Rain = 0
KPD3 191615Z 35019KT 01/M05 A3033 RMK A01 T00091046  RH  067%=      5-min Rain = 0
KPD3 191616Z 35019KT 01/M05 A3033 RMK A01 T00091045  RH  067%=      5-min Rain = 0
KPD3 191617Z 35017KT 01/M05 A3033 RMK A01 T00091046  RH  067%=      5-min Rain = 0
KPD3 191618Z 35017KT 01/M05 A3033 RMK A01 T00081046  RH  067%=      5-min Rain = 0
KPD3 191619Z 36015KT 01/M05 A3033 RMK A01 T00091046  RH  067%=      5-min Rain = 0
KPD3 191620Z 34017KT 01/M05 A3033 RMK A01 T00091046  RH  067%=      5-min Rain = 0
KPD3 191621Z 35015KT 01/M05 A3033 RMK A01 T00101045  RH  067%=      5-min Rain = 0
KPD3 191622Z 36015KT 01/M05 A3033 RMK A01 T00101045  RH  067%=      5-min Rain = 0
KPD3 191623Z 35015KT 01/M04 A3033 RMK A01 T00111044  RH  066%=      5-min Rain = 0
KPD3 191624Z 36017KT 01/M05 A3033 RMK A01 T00111046  RH  066%=      5-min Rain = 0
KPD3 191625Z 35016KT 01/M05 A3033 RMK A01 T00111046  RH  066%=      5-min Rain = 0
KPD3 191626Z 35016KT 01/M05 A3033 RMK A01 T00111046  RH  066%=      5-min Rain = 0
KPD3 191627Z 35017KT 01/M05 A3033 RMK A01 T00111046  RH  066%=      5-min Rain = 0
KPD3 191628Z 35017KT 01/M05 A3033 RMK A01 T00111045  RH  066%=      5-min Rain = 0
KPD3 191629Z 34019KT 01/M05 A3033 RMK A01 T00111045  RH  066%=      5-min Rain = 0
KPD3 191630Z 34016KT 01/M05 A3033 RMK A01 T00111046  RH  066%=      5-min Rain = 0
KPD3 191631Z 34017KT 01/M05 A3033 RMK A01 T00111045  RH  066%=      5-min Rain = 0
KPD3 191632Z 35015KT 01/M05 A3033 RMK A01 T00121045  RH  066%=      5-min Rain = 0
KPD3 191633Z 34018KT 01/M05 A3033 RMK A01 T00131045  RH  065%=      5-min Rain = 0
KPD3 191634Z 34018KT 01/M05 A3033 RMK A01 T00131046  RH  065%=      5-min Rain = 0
KPD3 191635Z 34018KT 01/M05 A3034 RMK A01 T00121047  RH  065%=      5-min Rain = 0
KPD3 191636Z 34017KT 01/M05 A3034 RMK A01 T00121046  RH  065%=      5-min Rain = 0
KPD3 191637Z 34013KT 01/M05 A3034 RMK A01 T00131046  RH  065%=      5-min Rain = 0
KPD3 191638Z 35016KT 02/M04 A3034 RMK A01 T00151044  RH  065%=      5-min Rain = 0
KPD3 191639Z 35021KT 02/M05 A3034 RMK A01 T00151046  RH  064%=      5-min Rain = 0
KPD3 191640Z 35019KT 01/M05 A3034 RMK A01 T00141047  RH  064%=      5-min Rain = 0
KPD3 191641Z 35017G22KT 02/M05 A3034 RMK A01 T00151046  RH  064%=      5-min Rain = 0
KPD3 191642Z 00019KT 02/M05 A3034 RMK A01 T00151047  RH  063%=      5-min Rain = 0
KPD3 191643Z 36021KT 02/M05 A3034 RMK A01 T00151048  RH  063%=      5-min Rain = 0
KPD3 191644Z 35019KT 01/M05 A3034 RMK A01 T00141048  RH  063%=      5-min Rain = 0
KPD3 191645Z 36018KT 01/M05 A3034 RMK A01 T00141047  RH  063%=      5-min Rain = 0
KPD3 191646Z 35017KT 02/M05 A3034 RMK A01 T00151047  RH  064%=      5-min Rain = 0
KPD3 191647Z 35020KT 02/M05 A3034 RMK A01 T00161046  RH  064%=      5-min Rain = 0
KPD3 191648Z 35017G22KT 02/M05 A3034 RMK A01 T00171045  RH  064%=      5-min Rain = 0
KPD3 191649Z 34022KT 02/M05 A3034 RMK A01 T00161045  RH  063%=      5-min Rain = 0
KPD3 191650Z 34019KT 02/M05 A3034 RMK A01 T00151047  RH  063%=      5-min Rain = 0
KPD3 191651Z 34019KT 02/M05 A3035 RMK A01 T00151046  RH  064%=      5-min Rain = 0
KPD3 191652Z 35023KT 02/M05 A3034 RMK A01 T00151046  RH  064%=      5-min Rain = 0
KPD3 191653Z 35022G27KT 02/M05 A3035 RMK A01 T00161046  RH  063%=      5-min Rain = 0
KPD3 191654Z 35023KT 02/M05 A3034 RMK A01 T00161046  RH  063%=      5-min Rain = 0
KPD3 191655Z 35021KT 02/M05 A3035 RMK A01 T00161046  RH  063%=      5-min Rain = 0
KPD3 191656Z 36020KT 02/M05 A3035 RMK A01 T00151046  RH  064%=      5-min Rain = 0
KPD3 191657Z 34018KT 02/M05 A3035 RMK A01 T00151046  RH  064%=      5-min Rain = 0
KPD3 191658Z 36016KT 02/M05 A3035 RMK A01 T00151046  RH  064%=      5-min Rain = 0
KPD3 191659Z 36020KT 02/M05 A3034 RMK A01 T00171045  RH  064%=      5-min Rain = 0
KPD3 191700Z 35020KT 02/M05 A3034 RMK A01 T00171045  RH  063%=      5-min Rain = 0
KPD3 191701Z 34022KT 02/M05 A3034 RMK A01 T00161045  RH  064%=      5-min Rain = 0
KPD3 191702Z 34020KT 02/M05 A3035 RMK A01 T00161045  RH  064%=      5-min Rain = 0
KPD3 191703Z 35022KT 02/M05 A3035 RMK A01 T00151045  RH  064%=      5-min Rain = 0
KPD3 191704Z 35025KT 02/M05 A3034 RMK A01 T00151046  RH  064%=      5-min Rain = 0
KPD3 191705Z 35023KT 01/M05 A3034 RMK A01 T00141046  RH  064%=      5-min Rain = 0
KPD3 191706Z 34020KT 02/M05 A3035 RMK A01 T00151045  RH  064%=      5-min Rain = 0
KPD3 191707Z 34019KT 02/M04 A3035 RMK A01 T00171044  RH  064%=      5-min Rain = 0
KPD3 191708Z 33020KT 02/M05 A3035 RMK A01 T00171045  RH  064%=      5-min Rain = 0
KPD3 191709Z 33020G25KT 02/M05 A3035 RMK A01 T00161046  RH  064%=      5-min Rain = 0
KPD3 191710Z 34020KT 02/M05 A3035 RMK A01 T00161045  RH  064%=      5-min Rain = 0
KPD3 191711Z 34022KT 02/M05 A3035 RMK A01 T00171045  RH  063%=      5-min Rain = 0
KPD3 191712Z 34022KT 02/M05 A3035 RMK A01 T00161046  RH  063%=      5-min Rain = 0
KPD3 191713Z 33019G25KT 02/M04 A3035 RMK A01 T00171044  RH  064%=      5-min Rain = 0
KPD3 191714Z 33023KT 02/M04 A3035 RMK A01 T00181044  RH  063%=      5-min Rain = 0
KPD3 191715Z 33022KT 02/M05 A3035 RMK A01 T00181045  RH  063%=      5-min Rain = 0
KPD3 191716Z 33020KT 02/M04 A3035 RMK A01 T00181044  RH  063%=      5-min Rain = 0
KPD3 191717Z 33021KT 02/M04 A3035 RMK A01 T00201044  RH  063%=      5-min Rain = 0
KPD3 191718Z 34018KT 02/M04 A3035 RMK A01 T00201044  RH  062%=      5-min Rain = 0
KPD3 191719Z 34020KT 02/M04 A3034 RMK A01 T00221043  RH  062%=      5-min Rain = 0
KPD3 191720Z 35022KT 02/M04 A3034 RMK A01 T00231044  RH  062%=      5-min Rain = 0
KPD3 191721Z 35022KT 02/M04 A3034 RMK A01 T00231044  RH  061%=      5-min Rain = 0
KPD3 191722Z 35021G26KT 03/M04 A3034 RMK A01 T00271041  RH  061%=      5-min Rain = 0
KPD3 191723Z 34020G25KT 03/M04 A3034 RMK A01 T00291042  RH  060%=      5-min Rain = 0
KPD3 191724Z 35022G28KT 03/M04 A3034 RMK A01 T00281044  RH  059%=      5-min Rain = 0
KPD3 191725Z 35024KT 03/M04 A3034 RMK A01 T00281044  RH  059%=      5-min Rain = 0
KPD3 191726Z 34021KT 03/M04 A3034 RMK A01 T00271044  RH  059%=      5-min Rain = 0
KPD3 191727Z 34018KT 03/M04 A3034 RMK A01 T00281043  RH  060%=      5-min Rain = 0
KPD3 191728Z 35019G24KT 03/M04 A3034 RMK A01 T00301041  RH  059%=      5-min Rain = 0
KPD3 191729Z 34018G23KT 03/M04 A3034 RMK A01 T00301042  RH  059%=      5-min Rain = 0
KPD3 191730Z 33019G25KT 03/M04 A3034 RMK A01 T00311042  RH  059%=      5-min Rain = 0
KPD3 191731Z 34024KT 03/M05 A3034 RMK A01 T00281045  RH  058%=      5-min Rain = 0
KPD3 191732Z 33022G30KT 02/M05 A3034 RMK A01 T00241047  RH  060%=      5-min Rain = 0
KPD3 191733Z 33023G29KT 03/M04 A3034 RMK A01 T00251043  RH  061%=      5-min Rain = 0
KPD3 191734Z 33024G29KT 03/M04 A3034 RMK A01 T00271042  RH  060%=      5-min Rain = 0
KPD3 191735Z 33022KT 03/M04 A3034 RMK A01 T00261043  RH  060%=      5-min Rain = 0
KPD3 191736Z 33019G25KT 03/M04 A3034 RMK A01 T00261043  RH  060%=      5-min Rain = 0
KPD3 191737Z 33022KT 03/M04 A3034 RMK A01 T00261043  RH  060%=      5-min Rain = 0
KPD3 191738Z 33021KT 03/M04 A3034 RMK A01 T00271042  RH  060%=      5-min Rain = 0
KPD3 191739Z 34020G25KT 03/M04 A3034 RMK A01 T00271043  RH  060%=      5-min Rain = 0
KPD3 191740Z 33021G27KT 03/M04 A3034 RMK A01 T00271043  RH  060%=      5-min Rain = 0
KPD3 191741Z 33018KT 03/M04 A3034 RMK A01 T00271043  RH  060%=      5-min Rain = 0
KPD3 191742Z 34020KT 03/M04 A3034 RMK A01 T00271043  RH  060%=      5-min Rain = 0
KPD3 191743Z 34017KT 03/M04 A3034 RMK A01 T00271043  RH  060%=      5-min Rain = 0
KPD3 191744Z 33020KT 03/M04 A3034 RMK A01 T00291041  RH  060%=      5-min Rain = 0
KPD3 191745Z 32018KT 03/M04 A3034 RMK A01 T00301042  RH  059%=      5-min Rain = 0
KPD3 191746Z 33016G22KT 03/M04 A3034 RMK A01 T00301041  RH  060%=      5-min Rain = 0
KPD3 191747Z 33021G27KT 03/M04 A3033 RMK A01 T00331040  RH  059%=      5-min Rain = 0
KPD3 191748Z 33025KT 03/M04 A3033 RMK A01 T00331042  RH  058%=      5-min Rain = 0
KPD3 191749Z 33021KT 03/M04 A3033 RMK A01 T00301044  RH  058%=      5-min Rain = 0
KPD3 191750Z 34021G26KT 03/M04 A3033 RMK A01 T00291043  RH  059%=      5-min Rain = 0
KPD3 191751Z 33020G25KT 03/M04 A3034 RMK A01 T00301042  RH  059%=      5-min Rain = 0
KPD3 191752Z 33019KT 03/M04 A3034 RMK A01 T00311042  RH  059%=      5-min Rain = 0
KPD3 191753Z 33018KT 03/M04 A3034 RMK A01 T00321041  RH  059%=      5-min Rain = 0
KPD3 191754Z 34019G26KT 03/M04 A3034 RMK A01 T00331042  RH  058%=      5-min Rain = 0
KPD3 191755Z 34019G24KT 03/M04 A3034 RMK A01 T00311042  RH  059%=      5-min Rain = 0
KPD3 191756Z 34020G25KT 03/M04 A3034 RMK A01 T00331040  RH  059%=      5-min Rain = 0
KPD3 191757Z 33019KT 04/M04 A3034 RMK A01 T00351039  RH  058%=      5-min Rain = 0
KPD3 191758Z 32018G25KT 04/M04 A3034 RMK A01 T00371040  RH  057%=      5-min Rain = 0
KPD3 191759Z 33016G22KT 04/M04 A3034 RMK A01 T00371041  RH  057%=      5-min Rain = 0
KPD3 191800Z 33018KT 04/M04 A3034 RMK A01 T00361041  RH  057%=      5-min Rain = 0
KPD3 191801Z 33019KT 04/M04 A3034 RMK A01 T00361042  RH  057%=      5-min Rain = 0
KPD3 191802Z 33018KT 03/M04 A3034 RMK A01 T00341043  RH  057%=      5-min Rain = 0
KPD3 191803Z 32017KT 03/M04 A3034 RMK A01 T00331042  RH  058%=      5-min Rain = 0
KPD3 191804Z 33016KT 04/M04 A3034 RMK A01 T00361039  RH  058%=      5-min Rain = 0
KPD3 191805Z 33017KT 04/M04 A3034 RMK A01 T00381040  RH  057%=      5-min Rain = 0
KPD3 191806Z 33017KT 04/M04 A3034 RMK A01 T00361041  RH  057%=      5-min Rain = 0
KPD3 191807Z 34020G25KT 04/M04 A3034 RMK A01 T00361041  RH  057%=      5-min Rain = 0
KPD3 191808Z 33020G26KT 03/M04 A3034 RMK A01 T00331043  RH  057%=      5-min Rain = 0
KPD3 191809Z 34022KT 03/M04 A3034 RMK A01 T00321043  RH  058%=      5-min Rain = 0
KPD3 191810Z 34019KT 03/M04 A3034 RMK A01 T00301044  RH  058%=      5-min Rain = 0
KPD3 191811Z 33018KT 03/M04 A3034 RMK A01 T00311041  RH  059%=      5-min Rain = 0
KPD3 191812Z 33017KT 03/M04 A3034 RMK A01 T00341040  RH  059%=      5-min Rain = 0
KPD3 191813Z 34018KT 04/M04 A3034 RMK A01 T00361040  RH  058%=      5-min Rain = 0
KPD3 191814Z 33018KT 04/M04 A3034 RMK A01 T00391038  RH  057%=      5-min Rain = 0
KPD3 191815Z 33019KT 04/M04 A3034 RMK A01 T00401039  RH  056%=      5-min Rain = 0
KPD3 191816Z 34019KT 04/M04 A3034 RMK A01 T00381041  RH  056%=      5-min Rain = 0
KPD3 191817Z 34018KT 04/M04 A3034 RMK A01 T00361041  RH  057%=      5-min Rain = 0
KPD3 191818Z 33017KT 04/M04 A3033 RMK A01 T00351041  RH  057%=      5-min Rain = 0
KPD3 191819Z 32017KT 04/M04 A3033 RMK A01 T00351041  RH  058%=      5-min Rain = 0
KPD3 191820Z 33016KT 04/M04 A3033 RMK A01 T00371038  RH  058%=      5-min Rain = 0
KPD3 191821Z 34019G24KT 04/M04 A3033 RMK A01 T00391038  RH  057%=      5-min Rain = 0
KPD3 191822Z 34016G22KT 04/M04 A3033 RMK A01 T00381040  RH  057%=      5-min Rain = 0
KPD3 191823Z 34018KT 04/M04 A3033 RMK A01 T00371039  RH  057%=      5-min Rain = 0
KPD3 191824Z 33014KT 04/M04 A3034 RMK A01 T00361042  RH  057%=      5-min Rain = 0
KPD3 191825Z 33022KT 04/M04 A3033 RMK A01 T00351040  RH  058%=      5-min Rain = 0
KPD3 191826Z 33022KT 04/M04 A3033 RMK A01 T00361041  RH  057%=      5-min Rain = 0
KPD3 191827Z 33021KT 04/M04 A3033 RMK A01 T00351041  RH  057%=      5-min Rain = 0
KPD3 191828Z 34019KT 03/M04 A3033 RMK A01 T00341041  RH  058%=      5-min Rain = 0
KPD3 191829Z 34016KT 04/M04 A3034 RMK A01 T00381038  RH  058%=      5-min Rain = 0
KPD3 191830Z 34016G21KT 04/M04 A3033 RMK A01 T00421036  RH  057%=      5-min Rain = 0
KPD3 191831Z 34015KT 04/M04 A3033 RMK A01 T00431037  RH  056%=      5-min Rain = 0
KPD3 191832Z 33014KT 04/M04 A3033 RMK A01 T00411040  RH  056%=      5-min Rain = 0
KPD3 191833Z 32015KT 04/M04 A3033 RMK A01 T00421037  RH  056%=      5-min Rain = 0
KPD3 191834Z 32018KT 04/M04 A3033 RMK A01 T00411038  RH  056%=      5-min Rain = 0
KPD3 191835Z 33019KT 04/M04 A3032 RMK A01 T00411039  RH  056%=      5-min Rain = 0
KPD3 191836Z 33017KT 04/M04 A3032 RMK A01 T00411038  RH  056%=      5-min Rain = 0
KPD3 191837Z 32017KT 04/M04 A3032 RMK A01 T00411039  RH  056%=      5-min Rain = 0
KPD3 191838Z 32017KT 04/M04 A3033 RMK A01 T00411039  RH  056%=      5-min Rain = 0
KPD3 191839Z 33017KT 04/M04 A3032 RMK A01 T00431037  RH  056%=      5-min Rain = 0
KPD3 191840Z 33016KT 05/M04 A3032 RMK A01 T00451037  RH  055%=      5-min Rain = 0
KPD3 191841Z 34018KT 04/M04 A3032 RMK A01 T00441039  RH  055%=      5-min Rain = 0
KPD3 191842Z 34015KT 04/M04 A3032 RMK A01 T00411040  RH  055%=      5-min Rain = 0
KPD3 191843Z 33018KT 04/M04 A3032 RMK A01 T00391040  RH  056%=      5-min Rain = 0
KPD3 191844Z 33019KT 04/M04 A3032 RMK A01 T00381040  RH  057%=      5-min Rain = 0
KPD3 191845Z 33020KT 04/M04 A3032 RMK A01 T00401038  RH  057%=      5-min Rain = 0
KPD3 191846Z 33019KT 04/M04 A3032 RMK A01 T00431038  RH  056%=      5-min Rain = 0
KPD3 191847Z 32020KT 04/M04 A3032 RMK A01 T00421039  RH  056%=      5-min Rain = 0
KPD3 191848Z 34020KT 04/M04 A3032 RMK A01 T00421039  RH  056%=      5-min Rain = 0
KPD3 191849Z 34019KT 04/M04 A3032 RMK A01 T00411039  RH  056%=      5-min Rain = 0
KPD3 191850Z 34019KT 04/M04 A3032 RMK A01 T00411039  RH  056%=      5-min Rain = 0
KPD3 191851Z 33018KT 04/M04 A3032 RMK A01 T00421039  RH  056%=      5-min Rain = 0
KPD3 191852Z 33019KT 04/M04 A3032 RMK A01 T00421038  RH  056%=      5-min Rain = 0
KPD3 191853Z 33018KT 04/M04 A3032 RMK A01 T00431038  RH  056%=      5-min Rain = 0
KPD3 191854Z 33017KT 04/M04 A3032 RMK A01 T00431038  RH  055%=      5-min Rain = 0
KPD3 191855Z 33020G25KT 04/M04 A3032 RMK A01 T00441037  RH  056%=      5-min Rain = 0
KPD3 191856Z 33021KT 04/M04 A3032 RMK A01 T00441039  RH  055%=      5-min Rain = 0
KPD3 191857Z 34019KT 04/M04 A3032 RMK A01 T00441038  RH  055%=      5-min Rain = 0
KPD3 191858Z 35022KT 05/M04 A3031 RMK A01 T00461037  RH  055%=      5-min Rain = 0
KPD3 191859Z 35018KT 04/M04 A3031 RMK A01 T00441039  RH  055%=      5-min Rain = 0
KPD3 191900Z 34020KT 04/M04 A3031 RMK A01 T00431039  RH  055%=      5-min Rain = 0
KPD3 191901Z 33018G23KT 04/M04 A3031 RMK A01 T00431039  RH  055%=      5-min Rain = 0
KPD3 191902Z 35017G23KT 04/M04 A3031 RMK A01 T00431038  RH  056%=      5-min Rain = 0
KPD3 191903Z 35015KT 04/M04 A3031 RMK A01 T00441037  RH  056%=      5-min Rain = 0
KPD3 191904Z 34017G23KT 05/M04 A3031 RMK A01 T00471035  RH  055%=      5-min Rain = 0
KPD3 191905Z 35020KT 05/M04 A3031 RMK A01 T00511035  RH  054%=      5-min Rain = 0
KPD3 191906Z 34017KT 05/M04 A3031 RMK A01 T00461039  RH  054%=      5-min Rain = 0
KPD3 191907Z 33020KT 05/M04 A3031 RMK A01 T00461036  RH  055%=      5-min Rain = 0
KPD3 191908Z 33020G25KT 05/M04 A303 RMK A01 T00461037  RH  055%=      5-min Rain = 0
KPD3 191909Z 34018KT 05/M04 A303 RMK A01 T00461037  RH  055%=      5-min Rain = 0
KPD3 191910Z 33018G23KT 05/M04 A303 RMK A01 T00481035  RH  055%=      5-min Rain = 0
KPD3 191911Z 34018KT 05/M04 A303 RMK A01 T00481037  RH  054%=      5-min Rain = 0
KPD3 191912Z 34015KT 05/M04 A303 RMK A01 T00451038  RH  055%=      5-min Rain = 0
KPD3 191913Z 32018KT 05/M04 A303 RMK A01 T00461035  RH  056%=      5-min Rain = 0
KPD3 191914Z 34016KT 05/M03 A303 RMK A01 T00501034  RH  055%=      5-min Rain = 0
KPD3 191915Z 33020KT 05/M04 A303 RMK A01 T00511035  RH  054%=      5-min Rain = 0
KPD3 191916Z 33018KT 05/M04 A303 RMK A01 T00491037  RH  054%=      5-min Rain = 0
KPD3 191917Z 33018KT 05/M04 A303 RMK A01 T00501035  RH  054%=      5-min Rain = 0
KPD3 191918Z 33017KT 05/M04 A303 RMK A01 T00511035  RH  054%=      5-min Rain = 0
KPD3 191919Z 33016G21KT 05/M04 A303 RMK A01 T00491037  RH  054%=      5-min Rain = 0
KPD3 191920Z 33019KT 05/M04 A303 RMK A01 T00481036  RH  054%=      5-min Rain = 0
KPD3 191921Z 34018KT 05/M04 A303 RMK A01 T00491036  RH  054%=      5-min Rain = 0
KPD3 191922Z 33018KT 05/M04 A3029 RMK A01 T00491036  RH  054%=      5-min Rain = 0
KPD3 191923Z 33019KT 05/M04 A303 RMK A01 T00491036  RH  054%=      5-min Rain = 0
KPD3 191924Z 33017KT 05/M04 A3029 RMK A01 T00471036  RH  055%=      5-min Rain = 0
KPD3 191925Z 34018G23KT 05/M03 A3029 RMK A01 T00491034  RH  055%=      5-min Rain = 0
KPD3 191926Z 34019KT 05/M03 A3029 RMK A01 T00511034  RH  054%=      5-min Rain = 0
KPD3 191927Z 33016KT 05/M04 A303 RMK A01 T00521035  RH  054%=      5-min Rain = 0
KPD3 191928Z 33013KT 05/M03 A3029 RMK A01 T00521033  RH  054%=      5-min Rain = 0
KPD3 191929Z 32013KT 06/M03 A3029 RMK A01 T00551033  RH  053%=      5-min Rain = 0
KPD3 191930Z 32016KT 06/M03 A3029 RMK A01 T00551033  RH  053%=      5-min Rain = 0
KPD3 191931Z 34018KT 06/M03 A3029 RMK A01 T00561034  RH  052%=      5-min Rain = 0
KPD3 191932Z 33019KT 06/M04 A3029 RMK A01 T00551035  RH  052%=      5-min Rain = 0
KPD3 191933Z 33017KT 06/M04 A3029 RMK A01 T00551035  RH  053%=      5-min Rain = 0
KPD3 191934Z 33017KT 05/M03 A3029 RMK A01 T00541034  RH  053%=      5-min Rain = 0
KPD3 191935Z 33015KT 06/M03 A3029 RMK A01 T00551034  RH  053%=      5-min Rain = 0
KPD3 191936Z 33014KT 05/M04 A3029 RMK A01 T00531035  RH  053%=      5-min Rain = 0
KPD3 191937Z 34016KT 06/M03 A3029 RMK A01 T00551032  RH  054%=      5-min Rain = 0
KPD3 191938Z 34017G22KT 06/M03 A3029 RMK A01 T00601030  RH  052%=      5-min Rain = 0
KPD3 191939Z 33016KT 06/M04 A3029 RMK A01 T00581035  RH  051%=      5-min Rain = 0
KPD3 191940Z 33018KT 06/M04 A3029 RMK A01 T00551035  RH  052%=      5-min Rain = 0
KPD3 191941Z 32017KT 06/M03 A3028 RMK A01 T00551034  RH  053%=      5-min Rain = 0
KPD3 191942Z 32015KT 06/M03 A3029 RMK A01 T00561033  RH  053%=      5-min Rain = 0
KPD3 191943Z 32017KT 06/M03 A3029 RMK A01 T00581032  RH  052%=      5-min Rain = 0
KPD3 191944Z 32016KT 06/M03 A3029 RMK A01 T00581033  RH  052%=      5-min Rain = 0
KPD3 191945Z 33013KT 06/M04 A3028 RMK A01 T00561035  RH  052%=      5-min Rain = 0
KPD3 191946Z 35017KT 06/M03 A3028 RMK A01 T00551033  RH  053%=      5-min Rain = 0
KPD3 191947Z 35017KT 06/M03 A3028 RMK A01 T00561034  RH  052%=      5-min Rain = 0
KPD3 191948Z 36014KT 06/M03 A3028 RMK A01 T00581032  RH  052%=      5-min Rain = 0
KPD3 191949Z 35014KT 06/M03 A3028 RMK A01 T00591033  RH  052%=      5-min Rain = 0
KPD3 191950Z 34011KT 06/M03 A3028 RMK A01 T00581033  RH  052%=      5-min Rain = 0
KPD3 191951Z 34012KT 06/M03 A3028 RMK A01 T00611030  RH  052%=      5-min Rain = 0
KPD3 191952Z 35013KT 06/M03 A3028 RMK A01 T00631030  RH  051%=      5-min Rain = 0
KPD3 191953Z 33015KT 07/M03 A3028 RMK A01 T00661030  RH  050%=      5-min Rain = 0
KPD3 191954Z 33015G21KT 06/M03 A3028 RMK A01 T00631034  RH  050%=      5-min Rain = 0
KPD3 191955Z 33014KT 06/M03 A3028 RMK A01 T00601034  RH  051%=      5-min Rain = 0
KPD3 191956Z 33015KT 06/M03 A3028 RMK A01 T00611032  RH  052%=      5-min Rain = 0
KPD3 191957Z 33018KT 06/M03 A3028 RMK A01 T00641031  RH  051%=      5-min Rain = 0
KPD3 191958Z 33017KT 06/M03 A3028 RMK A01 T00631033  RH  050%=      5-min Rain = 0
KPD3 191959Z 33016KT 06/M04 A3028 RMK A01 T00591035  RH  051%=      5-min Rain = 0
KPD3 192000Z 34014G19KT 06/M03 A3028 RMK A01 T00591033  RH  052%=      5-min Rain = 0
KPD3 192001Z 34017KT 06/M03 A3028 RMK A01 T00621031  RH  051%=      5-min Rain = 0
KPD3 192002Z 33017KT 06/M03 A3028 RMK A01 T00641032  RH  050%=      5-min Rain = 0
KPD3 192003Z 34017KT 06/M03 A3028 RMK A01 T00631032  RH  050%=      5-min Rain = 0
KPD3 192004Z 34014G19KT 06/M03 A3028 RMK A01 T00631032  RH  051%=      5-min Rain = 0
KPD3 192005Z 35019KT 07/M03 A3027 RMK A01 T00651031  RH  050%=      5-min Rain = 0
KPD3 192006Z 34017KT 06/M03 A3028 RMK A01 T00631034  RH  050%=      5-min Rain = 0
KPD3 192007Z 34015G21KT 06/M04 A3027 RMK A01 T00591035  RH  051%=      5-min Rain = 0
KPD3 192008Z 34018KT 06/M03 A3027 RMK A01 T00601032  RH  051%=      5-min Rain = 0
KPD3 192009Z 35019KT 06/M03 A3027 RMK A01 T00611033  RH  051%=      5-min Rain = 0
KPD3 192010Z 34015KT 06/M03 A3027 RMK A01 T00601034  RH  051%=      5-min Rain = 0
KPD3 192011Z 34015KT 06/M03 A3027 RMK A01 T00601032  RH  051%=      5-min Rain = 0
KPD3 192012Z 33017KT 06/M03 A3027 RMK A01 T00621032  RH  051%=      5-min Rain = 0
KPD3 192013Z 33018KT 06/M03 A3027 RMK A01 T00611033  RH  051%=      5-min Rain = 0
KPD3 192014Z 31017KT 06/M03 A3027 RMK A01 T00601033  RH  051%=      5-min Rain = 0
KPD3 192015Z 32018KT 06/M03 A3027 RMK A01 T00611032  RH  051%=      5-min Rain = 0
KPD3 192016Z 33015KT 06/M03 A3027 RMK A01 T00631031  RH  051%=      5-min Rain = 0
KPD3 192017Z 33020KT 07/M03 A3027 RMK A01 T00661031  RH  050%=      5-min Rain = 0
KPD3 192018Z 33018KT 07/M03 A3027 RMK A01 T00651032  RH  050%=      5-min Rain = 0
KPD3 192019Z 33018KT 07/M03 A3027 RMK A01 T00651033  RH  050%=      5-min Rain = 0
KPD3 192020Z 33017KT 06/M03 A3027 RMK A01 T00621034  RH  050%=      5-min Rain = 0
KPD3 192021Z 32016KT 06/M03 A3027 RMK A01 T00611033  RH  051%=      5-min Rain = 0
KPD3 192022Z 33019KT 06/M03 A3027 RMK A01 T00641031  RH  051%=      5-min Rain = 0
KPD3 192023Z 33018KT 07/M03 A3027 RMK A01 T00651032  RH  050%=      5-min Rain = 0
KPD3 192024Z 33019KT 07/M03 A3027 RMK A01 T00651033  RH  050%=      5-min Rain = 0
KPD3 192025Z 34019KT 06/M03 A3027 RMK A01 T00641033  RH  050%=      5-min Rain = 0
KPD3 192026Z 34018KT 06/M03 A3027 RMK A01 T00631033  RH  050%=      5-min Rain = 0
KPD3 192027Z 33016KT 06/M03 A3027 RMK A01 T00631032  RH  051%=      5-min Rain = 0
KPD3 192028Z 34016KT 07/M03 A3027 RMK A01 T00651032  RH  050%=      5-min Rain = 0
KPD3 192029Z 33016KT 06/M03 A3027 RMK A01 T00641033  RH  050%=      5-min Rain = 0
KPD3 192030Z 34016KT 06/M03 A3027 RMK A01 T00631033  RH  050%=      5-min Rain = 0
KPD3 192031Z 35015KT 07/M03 A3027 RMK A01 T00651031  RH  050%=      5-min Rain = 0
KPD3 192032Z 34018KT 07/M03 A3027 RMK A01 T00691030  RH  049%=      5-min Rain = 0
KPD3 192033Z 33014KT 07/M03 A3027 RMK A01 T00661033  RH  049%=      5-min Rain = 0
KPD3 192034Z 34013KT 07/M03 A3027 RMK A01 T00671030  RH  050%=      5-min Rain = 0
KPD3 192035Z 35015KT 07/M03 A3027 RMK A01 T00711028  RH  049%=      5-min Rain = 0
KPD3 192036Z 34016KT 07/M03 A3027 RMK A01 T00721030  RH  048%=      5-min Rain = 0
KPD3 192037Z 34015KT 07/M03 A3027 RMK A01 T00711031  RH  048%=      5-min Rain = 0
KPD3 192038Z 34016KT 07/M03 A3026 RMK A01 T00701031  RH  049%=      5-min Rain = 0
KPD3 192039Z 34015KT 07/M03 A3027 RMK A01 T00711031  RH  048%=      5-min Rain = 0
KPD3 192040Z 33014KT 07/M03 A3027 RMK A01 T00711031  RH  048%=      5-min Rain = 0
KPD3 192041Z 34015KT 07/M03 A3027 RMK A01 T00721030  RH  048%=      5-min Rain = 0
KPD3 192042Z 34014KT 07/M03 A3027 RMK A01 T00721030  RH  048%=      5-min Rain = 0
KPD3 192043Z 34015KT 07/M03 A3027 RMK A01 T00701030  RH  049%=      5-min Rain = 0
KPD3 192044Z 34012G17KT 07/M03 A3027 RMK A01 T00701030  RH  049%=      5-min Rain = 0
KPD3 192045Z 33018KT 07/M03 A3027 RMK A01 T00721030  RH  048%=      5-min Rain = 0
KPD3 192046Z 33014KT 07/M03 A3027 RMK A01 T00701031  RH  048%=      5-min Rain = 0
KPD3 192047Z 32016KT 07/M03 A3027 RMK A01 T00711030  RH  049%=      5-min Rain = 0
KPD3 192048Z 33013KT 07/M03 A3027 RMK A01 T00731029  RH  048%=      5-min Rain = 0
KPD3 192049Z 32016KT 07/M03 A3027 RMK A01 T00731029  RH  048%=      5-min Rain = 0
KPD3 192050Z 32015KT 07/M03 A3027 RMK A01 T00721030  RH  048%=      5-min Rain = 0
KPD3 192051Z 34013KT 07/M03 A3027 RMK A01 T00691031  RH  049%=      5-min Rain = 0
KPD3 192052Z 34014KT 07/M03 A3027 RMK A01 T00681030  RH  050%=      5-min Rain = 0
KPD3 192053Z 33015KT 07/M03 A3026 RMK A01 T00701028  RH  050%=      5-min Rain = 0
KPD3 192054Z 32015KT 07/M03 A3026 RMK A01 T00721028  RH  049%=      5-min Rain = 0
KPD3 192055Z 32014KT 07/M03 A3027 RMK A01 T00721029  RH  049%=      5-min Rain = 0
KPD3 192056Z 32012KT 07/M03 A3027 RMK A01 T00721029  RH  049%=      5-min Rain = 0
KPD3 192057Z 32011KT 07/M03 A3027 RMK A01 T00701029  RH  049%=      5-min Rain = 0
KPD3 192058Z 33010KT 07/M03 A3027 RMK A01 T00701029  RH  050%=      5-min Rain = 0
KPD3 192059Z 34010KT 07/M03 A3027 RMK A01 T00731026  RH  050%=      5-min Rain = 0
KPD3 192100Z 32014KT 08/M03 A3027 RMK A01 T00751026  RH  049%=      5-min Rain = 0
KPD3 192101Z 33014KT 08/M03 A3027 RMK A01 T00751027  RH  048%=      5-min Rain = 0
KPD3 192102Z 32013KT 08/M03 A3027 RMK A01 T00751030  RH  048%=      5-min Rain = 0
KPD3 192103Z 34012G18KT 07/M03 A3027 RMK A01 T00731030  RH  048%=      5-min Rain = 0
KPD3 192104Z 34014KT 07/M03 A3027 RMK A01 T00721029  RH  048%=      5-min Rain = 0
KPD3 192105Z 34012KT 08/M03 A3027 RMK A01 T00751028  RH  048%=      5-min Rain = 0
KPD3 192106Z 34012KT 08/M03 A3027 RMK A01 T00751028  RH  048%=      5-min Rain = 0
KPD3 192107Z 34010KT 08/M03 A3027 RMK A01 T00771026  RH  048%=      5-min Rain = 0
KPD3 192108Z 34011KT 08/M03 A3027 RMK A01 T00791026  RH  047%=      5-min Rain = 0
KPD3 192109Z 34013KT 08/M03 A3027 RMK A01 T00821026  RH  047%=      5-min Rain = 0
KPD3 192110Z 33013KT 08/M03 A3027 RMK A01 T00811027  RH  046%=      5-min Rain = 0
KPD3 192111Z 33013KT 08/M03 A3027 RMK A01 T00791028  RH  047%=      5-min Rain = 0
KPD3 192112Z 33010KT 08/M03 A3027 RMK A01 T00771028  RH  047%=      5-min Rain = 0
KPD3 192113Z 34013KT 08/M03 A3027 RMK A01 T00771027  RH  048%=      5-min Rain = 0
KPD3 192114Z 35015KT 08/M03 A3027 RMK A01 T00791028  RH  047%=      5-min Rain = 0
KPD3 192115Z 35013KT 08/M03 A3027 RMK A01 T00751030  RH  047%=      5-min Rain = 0
KPD3 192116Z 35015KT 07/M03 A3027 RMK A01 T00741028  RH  048%=      5-min Rain = 0
KPD3 192117Z 33016KT 08/M03 A3027 RMK A01 T00771028  RH  047%=      5-min Rain = 0
KPD3 192118Z 32016KT 08/M03 A3027 RMK A01 T00771030  RH  047%=      5-min Rain = 0
KPD3 192119Z 33018KT 08/M03 A3027 RMK A01 T00771031  RH  046%=      5-min Rain = 0
KPD3 192120Z 33017KT 08/M03 A3027 RMK A01 T00771031  RH  046%=      5-min Rain = 0
KPD3 192121Z 33015KT 08/M03 A3027 RMK A01 T00771031  RH  046%=      5-min Rain = 0
KPD3 192122Z 33015KT 08/M03 A3027 RMK A01 T00781029  RH  047%=      5-min Rain = 0
KPD3 192123Z 33012KT 08/M03 A3027 RMK A01 T00771028  RH  047%=      5-min Rain = 0
KPD3 192124Z 33014KT 08/M03 A3027 RMK A01 T00771028  RH  047%=      5-min Rain = 0
KPD3 192125Z 33012KT 08/M03 A3027 RMK A01 T00771028  RH  047%=      5-min Rain = 0
KPD3 192126Z 33011KT 08/M03 A3027 RMK A01 T00771028  RH  047%=      5-min Rain = 0
KPD3 192127Z 33013KT 08/M03 A3027 RMK A01 T00801026  RH  047%=      5-min Rain = 0
KPD3 192128Z 32010KT 08/M03 A3027 RMK A01 T00821026  RH  047%=      5-min Rain = 0
KPD3 192129Z 34012KT 08/M03 A3027 RMK A01 T00831027  RH  046%=      5-min Rain = 0
KPD3 192130Z 34012KT 08/M03 A3027 RMK A01 T00821028  RH  046%=      5-min Rain = 0
KPD3 192131Z 34014KT 08/M03 A3027 RMK A01 T00801030  RH  046%=      5-min Rain = 0
KPD3 192132Z 33013G18KT 08/M03 A3027 RMK A01 T00811029  RH  046%=      5-min Rain = 0
KPD3 192133Z 32015KT 08/M03 A3027 RMK A01 T00811029  RH  046%=      5-min Rain = 0
KPD3 192134Z 33013KT 08/M03 A3028 RMK A01 T00791030  RH  046%=      5-min Rain = 0
KPD3 192135Z 33009KT 08/M03 A3027 RMK A01 T00781030  RH  046%=      5-min Rain = 0
KPD3 192136Z 34012G18KT 08/M03 A3027 RMK A01 T00801028  RH  046%=      5-min Rain = 0
KPD3 192137Z 35013KT 08/M03 A3027 RMK A01 T00821030  RH  045%=      5-min Rain = 0
KPD3 192138Z 34015KT 08/M03 A3027 RMK A01 T00811030  RH  045%=      5-min Rain = 0
KPD3 192139Z 33015KT 08/M03 A3027 RMK A01 T00811029  RH  046%=      5-min Rain = 0
KPD3 192140Z 32015KT 08/M03 A3027 RMK A01 T00801030  RH  046%=      5-min Rain = 0
KPD3 192141Z 34014KT 08/M03 A3027 RMK A01 T00801031  RH  045%=      5-min Rain = 0
KPD3 192142Z 34016KT 08/M03 A3027 RMK A01 T00811031  RH  045%=      5-min Rain = 0
KPD3 192143Z 34015KT 08/M03 A3027 RMK A01 T00801031  RH  045%=      5-min Rain = 0
KPD3 192144Z 35014KT 08/M03 A3027 RMK A01 T00801032  RH  045%=      5-min Rain = 0
KPD3 192145Z 36014KT 08/M03 A3027 RMK A01 T00801032  RH  045%=      5-min Rain = 0
KPD3 192146Z 00015KT 08/M03 A3027 RMK A01 T00801031  RH  045%=      5-min Rain = 0
KPD3 192147Z 36013KT 08/M03 A3027 RMK A01 T00811031  RH  045%=      5-min Rain = 0
KPD3 192148Z 36012KT 08/M03 A3027 RMK A01 T00801031  RH  045%=      5-min Rain = 0
KPD3 192149Z 00012KT 08/M03 A3027 RMK A01 T00801030  RH  046%=      5-min Rain = 0
KPD3 192150Z 00012KT 08/M03 A3027 RMK A01 T00791030  RH  046%=      5-min Rain = 0
KPD3 192151Z 00010KT 08/M03 A3027 RMK A01 T00791029  RH  046%=      5-min Rain = 0
KPD3 192152Z 35013KT 08/M03 A3027 RMK A01 T00811028  RH  046%=      5-min Rain = 0
KPD3 192153Z 34013KT 08/M03 A3027 RMK A01 T00811029  RH  046%=      5-min Rain = 0
KPD3 192154Z 34013KT 08/M03 A3027 RMK A01 T00821029  RH  045%=      5-min Rain = 0
KPD3 192155Z 35013KT 08/M03 A3027 RMK A01 T00811030  RH  045%=      5-min Rain = 0
KPD3 192156Z 33013KT 08/M03 A3027 RMK A01 T00811030  RH  045%=      5-min Rain = 0
KPD3 192157Z 32012KT 08/M03 A3027 RMK A01 T00821029  RH  045%=      5-min Rain = 0
KPD3 192158Z 32013KT 08/M03 A3027 RMK A01 T00821030  RH  045%=      5-min Rain = 0
KPD3 192159Z 32015KT 08/M03 A3027 RMK A01 T00831030  RH  045%=      5-min Rain = 0
KPD3 192200Z 33013KT 08/M03 A3027 RMK A01 T00841029  RH  045%=      5-min Rain = 0
KPD3 192201Z 33015G20KT 09/M03 A3027 RMK A01 T00861029  RH  044%=      5-min Rain = 0
KPD3 192202Z 32015KT 09/M03 A3027 RMK A01 T00851031  RH  044%=      5-min Rain = 0
KPD3 192203Z 33013KT 08/M03 A3027 RMK A01 T00831032  RH  044%=      5-min Rain = 0
KPD3 192204Z 33013KT 08/M03 A3027 RMK A01 T00821031  RH  045%=      5-min Rain = 0
KPD3 192205Z 34010KT 08/M03 A3027 RMK A01 T00801031  RH  045%=      5-min Rain = 0
KPD3 192206Z 33012KT 08/M03 A3027 RMK A01 T00821029  RH  045%=      5-min Rain = 0
KPD3 192207Z 32013KT 08/M03 A3027 RMK A01 T00811031  RH  045%=      5-min Rain = 0
KPD3 192208Z 33011KT 08/M03 A3027 RMK A01 T00811031  RH  045%=      5-min Rain = 0
KPD3 192209Z 32013KT 08/M03 A3027 RMK A01 T00821031  RH  045%=      5-min Rain = 0
KPD3 192210Z 34011KT 08/M03 A3027 RMK A01 T00831031  RH  044%=      5-min Rain = 0
KPD3 192211Z 34015KT 08/M03 A3027 RMK A01 T00841032  RH  044%=      5-min Rain = 0
KPD3 192212Z 32016KT 08/M03 A3027 RMK A01 T00841034  RH  043%=      5-min Rain = 0
KPD3 192213Z 34015KT 08/M03 A3027 RMK A01 T00821034  RH  044%=      5-min Rain = 0
KPD3 192214Z 34015KT 08/M03 A3027 RMK A01 T00811034  RH  044%=      5-min Rain = 0
KPD3 192215Z 34014KT 08/M03 A3027 RMK A01 T00811034  RH  044%=      5-min Rain = 0
KPD3 192216Z 35014KT 08/M03 A3027 RMK A01 T00811034  RH  044%=      5-min Rain = 0
KPD3 192217Z 35014KT 08/M03 A3027 RMK A01 T00811034  RH  044%=      5-min Rain = 0
KPD3 192218Z 33015KT 08/M03 A3027 RMK A01 T00811033  RH  044%=      5-min Rain = 0
KPD3 192219Z 33016KT 08/M03 A3027 RMK A01 T00811034  RH  044%=      5-min Rain = 0
KPD3 192220Z 33014KT 08/M04 A3027 RMK A01 T00791035  RH  044%=      5-min Rain = 0
KPD3 192221Z 32012KT 08/M03 A3027 RMK A01 T00781034  RH  045%=      5-min Rain = 0
KPD3 192222Z 33014KT 08/M03 A3027 RMK A01 T00791033  RH  045%=      5-min Rain = 0
KPD3 192223Z 33013KT 08/M03 A3027 RMK A01 T00791033  RH  045%=      5-min Rain = 0
KPD3 192224Z 32013KT 08/M03 A3027 RMK A01 T00801033  RH  045%=      5-min Rain = 0
KPD3 192225Z 33011KT 08/M03 A3027 RMK A01 T00801031  RH  045%=      5-min Rain = 0
KPD3 192226Z 33010KT 08/M03 A3027 RMK A01 T00801031  RH  045%=      5-min Rain = 0
KPD3 192227Z 33010KT 08/M03 A3028 RMK A01 T00811031  RH  045%=      5-min Rain = 0
KPD3 192228Z 34013KT 08/M03 A3028 RMK A01 T00811031  RH  045%=      5-min Rain = 0
KPD3 192229Z 33013KT 08/M03 A3028 RMK A01 T00811033  RH  044%=      5-min Rain = 0
KPD3 192230Z 33012KT 08/M03 A3027 RMK A01 T00791033  RH  045%=      5-min Rain = 0
KPD3 192231Z 34011KT 08/M03 A3028 RMK A01 T00791032  RH  045%=      5-min Rain = 0
KPD3 192232Z 34010KT 08/M03 A3028 RMK A01 T00811032  RH  045%=      5-min Rain = 0
KPD3 192233Z 35011KT 08/M03 A3028 RMK A01 T00831033  RH  044%=      5-min Rain = 0
KPD3 192234Z 34013KT 08/M03 A3028 RMK A01 T00831032  RH  044%=      5-min Rain = 0
KPD3 192235Z 34012KT 08/M03 A3028 RMK A01 T00831032  RH  044%=      5-min Rain = 0
KPD3 192236Z 34011KT 08/M03 A3028 RMK A01 T00821032  RH  044%=      5-min Rain = 0
KPD3 192237Z 34011KT 08/M03 A3028 RMK A01 T00811032  RH  045%=      5-min Rain = 0
KPD3 192238Z 33011KT 08/M03 A3028 RMK A01 T00811031  RH  045%=      5-min Rain = 0
KPD3 192239Z 32011KT 08/M03 A3028 RMK A01 T00811032  RH  045%=      5-min Rain = 0
KPD3 192240Z 33014KT 08/M03 A3028 RMK A01 T00811033  RH  044%=      5-min Rain = 0
KPD3 192241Z 34014KT 08/M03 A3028 RMK A01 T00801034  RH  044%=      5-min Rain = 0
KPD3 192242Z 34011KT 08/M03 A3028 RMK A01 T00791033  RH  045%=      5-min Rain = 0
KPD3 192243Z 33010KT 08/M03 A3028 RMK A01 T00791033  RH  045%=      5-min Rain = 0
KPD3 192244Z 32014KT 08/M03 A3027 RMK A01 T00791033  RH  045%=      5-min Rain = 0
KPD3 192245Z 33012KT 08/M03 A3027 RMK A01 T00801034  RH  045%=      5-min Rain = 0
KPD3 192246Z 33013KT 08/M03 A3027 RMK A01 T00791034  RH  045%=      5-min Rain = 0
KPD3 192247Z 33013KT 08/M03 A3027 RMK A01 T00791034  RH  045%=      5-min Rain = 0
KPD3 192248Z 33015KT 08/M03 A3027 RMK A01 T00791034  RH  045%=      5-min Rain = 0
KPD3 192249Z 33012KT 08/M04 A3027 RMK A01 T00781035  RH  045%=      5-min Rain = 0
KPD3 192250Z 33011KT 08/M04 A3027 RMK A01 T00781035  RH  045%=      5-min Rain = 0
KPD3 192251Z 32012KT 08/M04 A3027 RMK A01 T00791035  RH  045%=      5-min Rain = 0
KPD3 192252Z 32011KT 08/M04 A3027 RMK A01 T00781036  RH  044%=      5-min Rain = 0
KPD3 192253Z 33010KT 08/M04 A3027 RMK A01 T00771036  RH  045%=      5-min Rain = 0
KPD3 192254Z 33011KT 08/M04 A3027 RMK A01 T00771035  RH  045%=      5-min Rain = 0
KPD3 192255Z 33010KT 08/M03 A3027 RMK A01 T00781034  RH  045%=      5-min Rain = 0
KPD3 192256Z 34011KT 08/M04 A3027 RMK A01 T00781035  RH  045%=      5-min Rain = 0
KPD3 192257Z 34010KT 08/M04 A3027 RMK A01 T00781035  RH  045%=      5-min Rain = 0
KPD3 192258Z 34011KT 08/M04 A3027 RMK A01 T00781035  RH  045%=      5-min Rain = 0
KPD3 192259Z 33011KT 08/M04 A3027 RMK A01 T00771035  RH  045%=      5-min Rain = 0
KPD3 192300Z 33012KT 08/M04 A3027 RMK A01 T00761035  RH  045%=      5-min Rain = 0
KPD3 192301Z 35011KT 08/M03 A3027 RMK A01 T00761034  RH  045%=      5-min Rain = 0
KPD3 192302Z 34014KT 08/M04 A3027 RMK A01 T00761035  RH  045%=      5-min Rain = 0
KPD3 192303Z 34012KT 08/M04 A3027 RMK A01 T00761036  RH  045%=      5-min Rain = 0
KPD3 192304Z 33011KT 08/M04 A3028 RMK A01 T00761036  RH  045%=      5-min Rain = 0
KPD3 192305Z 34012KT 08/M04 A3028 RMK A01 T00761037  RH  045%=      5-min Rain = 0
KPD3 192306Z 35012KT 08/M04 A3028 RMK A01 T00761037  RH  044%=      5-min Rain = 0
KPD3 192307Z 34013KT 08/M04 A3028 RMK A01 T00761037  RH  045%=      5-min Rain = 0
KPD3 192308Z 34012KT 08/M04 A3028 RMK A01 T00751037  RH  045%=      5-min Rain = 0
KPD3 192309Z 34012KT 08/M04 A3028 RMK A01 T00751037  RH  045%=      5-min Rain = 0
KPD3 192310Z 33012KT 07/M04 A3028 RMK A01 T00741037  RH  045%=      5-min Rain = 0
KPD3 192311Z 34009KT 07/M04 A3028 RMK A01 T00741037  RH  045%=      5-min Rain = 0
KPD3 192312Z 34010KT 07/M04 A3028 RMK A01 T00741036  RH  045%=      5-min Rain = 0
KPD3 192313Z 34010KT 07/M04 A3028 RMK A01 T00741036  RH  046%=      5-min Rain = 0
KPD3 192314Z 35009KT 07/M04 A3028 RMK A01 T00741036  RH  046%=      5-min Rain = 0
KPD3 192315Z 34008KT 07/M04 A3028 RMK A01 T00741035  RH  046%=      5-min Rain = 0
KPD3 192316Z 34009KT 07/M04 A3028 RMK A01 T00731036  RH  046%=      5-min Rain = 0
KPD3 192317Z 34010KT 07/M04 A3028 RMK A01 T00731036  RH  046%=      5-min Rain = 0
KPD3 192318Z 34011KT 07/M04 A3028 RMK A01 T00731037  RH  046%=      5-min Rain = 0
KPD3 192319Z 34011KT 07/M04 A3028 RMK A01 T00721037  RH  046%=      5-min Rain = 0
KPD3 192320Z 33009KT 07/M04 A3028 RMK A01 T00721037  RH  046%=      5-min Rain = 0
KPD3 192321Z 33009KT 07/M04 A3028 RMK A01 T00721037  RH  046%=      5-min Rain = 0
KPD3 192322Z 33008KT 07/M04 A3028 RMK A01 T00721037  RH  046%=      5-min Rain = 0
KPD3 192323Z 33008KT 07/M04 A3028 RMK A01 T00711037  RH  046%=      5-min Rain = 0
KPD3 192324Z 34007KT 07/M04 A3028 RMK A01 T00711037  RH  046%=      5-min Rain = 0
KPD3 192325Z 34008KT 07/M04 A3028 RMK A01 T00711037  RH  046%=      5-min Rain = 0
KPD3 192326Z 34007KT 07/M04 A3029 RMK A01 T00701037  RH  046%=      5-min Rain = 0
KPD3 192327Z 34008KT 07/M04 A3029 RMK A01 T00701037  RH  047%=      5-min Rain = 0
KPD3 192328Z 34008KT 07/M04 A3029 RMK A01 T00691037  RH  047%=      5-min Rain = 0
KPD3 192329Z 35008KT 07/M04 A3029 RMK A01 T00691037  RH  047%=      5-min Rain = 0
KPD3 192330Z 34008KT 07/M04 A3029 RMK A01 T00691037  RH  047%=      5-min Rain = 0
KPD3 192331Z 35008KT 07/M04 A3029 RMK A01 T00681037  RH  047%=      5-min Rain = 0
KPD3 192332Z 34007KT 07/M04 A3029 RMK A01 T00671037  RH  047%=      5-min Rain = 0
KPD3 192333Z 34006KT 07/M04 A3028 RMK A01 T00671037  RH  047%=      5-min Rain = 0
KPD3 192334Z 34006KT 07/M04 A3028 RMK A01 T00661037  RH  048%=      5-min Rain = 0
KPD3 192335Z 33006KT 07/M04 A3028 RMK A01 T00651037  RH  048%=      5-min Rain = 0
KPD3 192336Z 34008KT 07/M04 A3028 RMK A01 T00651037  RH  048%=      5-min Rain = 0
KPD3 192337Z 34008KT 07/M04 A3028 RMK A01 T00651037  RH  048%=      5-min Rain = 0
KPD3 192338Z 35008KT 07/M04 A3028 RMK A01 T00651037  RH  048%=      5-min Rain = 0
KPD3 192339Z 35008KT 06/M04 A3028 RMK A01 T00631038  RH  048%=      5-min Rain = 0
KPD3 192340Z 35008KT 06/M04 A3028 RMK A01 T00631038  RH  048%=      5-min Rain = 0
KPD3 192341Z 35009KT 06/M04 A3028 RMK A01 T00631038  RH  048%=      5-min Rain = 0
KPD3 192342Z 34008KT 06/M04 A3028 RMK A01 T00621039  RH  048%=      5-min Rain = 0
KPD3 192343Z 34007KT 06/M04 A3028 RMK A01 T00621039  RH  048%=      5-min Rain = 0
KPD3 192344Z 34007KT 06/M04 A3028 RMK A01 T00611040  RH  049%=      5-min Rain = 0
KPD3 192345Z 34007KT 06/M04 A3028 RMK A01 T00601040  RH  049%=      5-min Rain = 0
KPD3 192346Z 34006KT 06/M04 A3028 RMK A01 T00591040  RH  049%=      5-min Rain = 0
KPD3 192347Z 34006KT 06/M04 A3028 RMK A01 T00581041  RH  049%=      5-min Rain = 0
KPD3 192348Z 34006KT 06/M04 A3028 RMK A01 T00571041  RH  049%=      5-min Rain = 0
KPD3 192349Z 34006KT 06/M04 A3028 RMK A01 T00571041  RH  049%=      5-min Rain = 0
KPD3 192350Z 34005KT 06/M04 A3028 RMK A01 T00551042  RH  050%=      5-min Rain = 0
KPD3 192351Z 34006KT 05/M04 A3028 RMK A01 T00541042  RH  050%=      5-min Rain = 0
KPD3 192352Z 34006KT 05/M04 A3028 RMK A01 T00521043  RH  051%=      5-min Rain = 0
KPD3 192353Z 34006KT 05/M04 A3028 RMK A01 T00511042  RH  051%=      5-min Rain = 0
KPD3 192354Z 34006KT 05/M04 A3028 RMK A01 T00501043  RH  051%=      5-min Rain = 0
KPD3 192355Z 33006KT 05/M04 A3028 RMK A01 T00481043  RH  052%=      5-min Rain = 0
KPD3 192356Z 34006KT 05/M04 A3028 RMK A01 T00471043  RH  052%=      5-min Rain = 0
KPD3 192357Z 34006KT 05/M04 A3028 RMK A01 T00461043  RH  053%=      5-min Rain = 0
KPD3 192358Z 34006KT 04/M04 A3028 RMK A01 T00441044  RH  053%=      5-min Rain = 0
KPD3 192359Z 34006KT 04/M04 A3028 RMK A01 T00431044  RH  053%=      5-min Rain = 0
KPD3 200000Z 34006KT 04/M04 A3028 RMK A01 T00411044  RH  054%=      5-min Rain = 0
KPD3 200001Z 34006KT 04/M04 A3028 RMK A01 T00411044  RH  054%=      5-min Rain = 0
KPD3 200002Z 34006KT 04/M05 A3028 RMK A01 T00391045  RH  054%=      5-min Rain = 0
KPD3 200003Z 34007KT 04/M05 A3028 RMK A01 T00371046  RH  055%=      5-min Rain = 0
KPD3 200004Z 34007KT 04/M05 A3028 RMK A01 T00351046  RH  055%=      5-min Rain = 0
KPD3 200005Z 34006KT 03/M05 A3028 RMK A01 T00341047  RH  056%=      5-min Rain = 0
KPD3 200006Z 34006KT 03/M05 A3028 RMK A01 T00331046  RH  056%=      5-min Rain = 0
KPD3 200007Z 34006KT 03/M05 A3028 RMK A01 T00321046  RH  056%=      5-min Rain = 0
KPD3 200008Z 33006KT 03/M05 A3028 RMK A01 T00311046  RH  057%=      5-min Rain = 0
KPD3 200009Z 33005KT 03/M05 A3028 RMK A01 T00301047  RH  057%=      5-min Rain = 0
KPD3 200010Z 33005KT 03/M05 A3028 RMK A01 T00281048  RH  057%=      5-min Rain = 0
KPD3 200011Z 34005KT 03/M05 A3028 RMK A01 T00261051  RH  057%=      5-min Rain = 0
KPD3 200012Z 34004KT 02/M05 A3028 RMK A01 T00231053  RH  057%=      5-min Rain = 0
KPD3 200013Z 34004KT 02/M05 A3028 RMK A01 T00211053  RH  058%=      5-min Rain = 0
KPD3 200014Z 35004KT 02/M06 A3028 RMK A01 T00191055  RH  058%=      5-min Rain = 0
KPD3 200015Z 35004KT 02/M06 A3028 RMK A01 T00171055  RH  059%=      5-min Rain = 0
KPD3 200016Z 35003KT 02/M05 A3028 RMK A01 T00161053  RH  060%=      5-min Rain = 0
KPD3 200017Z 35003KT 02/M05 A3028 RMK A01 T00151052  RH  061%=      5-min Rain = 0
KPD3 200018Z 35003KT 02/M05 A3028 RMK A01 T00151051  RH  061%=      5-min Rain = 0
KPD3 200019Z 35003KT 02/M05 A3028 RMK A01 T00161049  RH  062%=      5-min Rain = 0
KPD3 200020Z 34002KT 02/M05 A3028 RMK A01 T00161050  RH  061%=      5-min Rain = 0
KPD3 200021Z 35003KT 02/M05 A3028 RMK A01 T00171049  RH  061%=      5-min Rain = 0
KPD3 200022Z 35002KT 02/M05 A3029 RMK A01 T00181049  RH  061%=      5-min Rain = 0
KPD3 200023Z 35002KT 02/M05 A3029 RMK A01 T00171051  RH  061%=      5-min Rain = 0
KPD3 200024Z 34002KT 02/M05 A3028 RMK A01 T00161052  RH  061%=      5-min Rain = 0
KPD3 200025Z 35002KT 01/M05 A3028 RMK A01 T00141052  RH  062%=      5-min Rain = 0
KPD3 200026Z 35002KT 02/M05 A3028 RMK A01 T00151049  RH  063%=      5-min Rain = 0
KPD3 200027Z 35002KT 02/M05 A3028 RMK A01 T00161048  RH  063%=      5-min Rain = 0
KPD3 200028Z 35002KT 02/M05 A3028 RMK A01 T00171048  RH  062%=      5-min Rain = 0
KPD3 200029Z 35003KT 02/M05 A3028 RMK A01 T00171048  RH  062%=      5-min Rain = 0
KPD3 200030Z 35003KT 02/M05 A3028 RMK A01 T00181047  RH  062%=      5-min Rain = 0
KPD3 200031Z 35003KT 02/M05 A3028 RMK A01 T00181047  RH  062%=      5-min Rain = 0
KPD3 200032Z 35004KT 02/M05 A3028 RMK A01 T00181047  RH  062%=      5-min Rain = 0
KPD3 200033Z 35003KT 02/M05 A3028 RMK A01 T00191047  RH  062%=      5-min Rain = 0
KPD3 200034Z 34003KT 02/M05 A3028 RMK A01 T00181048  RH  061%=      5-min Rain = 0
KPD3 200035Z 34003KT 02/M05 A3028 RMK A01 T00171048  RH  062%=      5-min Rain = 0
KPD3 200036Z 34003KT 02/M05 A3028 RMK A01 T00161048  RH  062%=      5-min Rain = 0
KPD3 200037Z 34002KT 02/M05 A3028 RMK A01 T00161048  RH  062%=      5-min Rain = 0
KPD3 200038Z 34002KT 02/M05 A3028 RMK A01 T00161048  RH  063%=      5-min Rain = 0
KPD3 200039Z 34001KT 02/M05 A3028 RMK A01 T00161047  RH  063%=      5-min Rain = 0
KPD3 200040Z 32001KT 02/M05 A3028 RMK A01 T00161047  RH  063%=      5-min Rain = 0
KPD3 200041Z 30001KT 02/M05 A3029 RMK A01 T00151050  RH  062%=      5-min Rain = 0
KPD3 200042Z 30002KT 01/M05 A3029 RMK A01 T00131050  RH  063%=      5-min Rain = 0
KPD3 200043Z 29001KT 01/M05 A3029 RMK A01 T00111053  RH  062%=      5-min Rain = 0
KPD3 200044Z 29002KT 01/M06 A3029 RMK A01 T00061058  RH  062%=      5-min Rain = 0
KPD3 200045Z 30002KT 00/M06 A3029 RMK A01 T00041055  RH  065%=      5-min Rain = 0
KPD3 200046Z 30002KT 00/M06 A3029 RMK A01 T00031055  RH  065%=      5-min Rain = 0
KPD3 200047Z 31002KT 00/M05 A3029 RMK A01 T00031053  RH  066%=      5-min Rain = 0
KPD3 200048Z 31002KT 01/M05 A3029 RMK A01 T00051051  RH  066%=      5-min Rain = 0
KPD3 200049Z 31002KT 01/M05 A3029 RMK A01 T00061051  RH  066%=      5-min Rain = 0
KPD3 200050Z 31002KT 01/M05 A3029 RMK A01 T00061051  RH  066%=      5-min Rain = 0
KPD3 200051Z 31002KT 01/M05 A3029 RMK A01 T00071051  RH  066%=      5-min Rain = 0
KPD3 200052Z 30002KT 01/M05 A3028 RMK A01 T00071050  RH  065%=      5-min Rain = 0
KPD3 200053Z 29003KT 01/M05 A3028 RMK A01 T00071051  RH  065%=      5-min Rain = 0
KPD3 200054Z 28003KT 01/M05 A3028 RMK A01 T00061052  RH  065%=      5-min Rain = 0
KPD3 200055Z 29003KT 00/M06 A3029 RMK A01 T00031056  RH  065%=      5-min Rain = 0
KPD3 200056Z 29004KT M00/M06 A3029 RMK A01 T10021063  RH  064%=      5-min Rain = 0
KPD3 200057Z 29003KT M01/M06 A3029 RMK A01 T10061063  RH  065%=      5-min Rain = 0
KPD3 200058Z 30003KT M01/M06 A3028 RMK A01 T10071060  RH  068%=      5-min Rain = 0
KPD3 200059Z 31003KT M01/M06 A3028 RMK A01 T10071059  RH  068%=      5-min Rain = 0
KPD3 200100Z 31003KT M01/M06 A3028 RMK A01 T10071061  RH  067%=      5-min Rain = 0
KPD3 200101Z 31003KT M01/M06 A3028 RMK A01 T10081062  RH  067%=      5-min Rain = 0
KPD3 200102Z 31003KT M01/M06 A3028 RMK A01 T10091060  RH  068%=      5-min Rain = 0
KPD3 200103Z 30003KT M01/M06 A3028 RMK A01 T10081060  RH  068%=      5-min Rain = 0
KPD3 200104Z 30003KT M01/M06 A3028 RMK A01 T10101062  RH  067%=      5-min Rain = 0
KPD3 200105Z 29004KT M01/M06 A3028 RMK A01 T10111063  RH  068%=      5-min Rain = 0
KPD3 200106Z 29004KT M01/M06 A3028 RMK A01 T10121063  RH  068%=      5-min Rain = 0
KPD3 200107Z 29005KT M01/M06 A3028 RMK A01 T10121062  RH  069%=      5-min Rain = 0
KPD3 200108Z 29005KT M01/M06 A3028 RMK A01 T10121062  RH  069%=      5-min Rain = 0
KPD3 200109Z 29004KT M01/M07 A3028 RMK A01 T10141065  RH  068%=      5-min Rain = 0
KPD3 200110Z 29004KT M02/M07 A3028 RMK A01 T10181069  RH  068%=      5-min Rain = 0
KPD3 200111Z 30004KT M02/M07 A3028 RMK A01 T10201069  RH  069%=      5-min Rain = 0
KPD3 200112Z 29003KT M02/M07 A3028 RMK A01 T10221069  RH  070%=      5-min Rain = 0
KPD3 200113Z 28003KT M02/M07 A3028 RMK A01 T10231069  RH  071%=      5-min Rain = 0
KPD3 200114Z 28003KT M02/M07 A3027 RMK A01 T10241068  RH  071%=      5-min Rain = 0
KPD3 200115Z 29003KT M02/M07 A3027 RMK A01 T10241068  RH  072%=      5-min Rain = 0
KPD3 200116Z 29002KT M02/M07 A3027 RMK A01 T10241067  RH  072%=      5-min Rain = 0
KPD3 200117Z 31002KT M02/M07 A3027 RMK A01 T10231066  RH  072%=      5-min Rain = 0
KPD3 200118Z 32002KT M02/M07 A3027 RMK A01 T10221065  RH  073%=      5-min Rain = 0
KPD3 200119Z 33002KT M02/M06 A3027 RMK A01 T10211064  RH  072%=      5-min Rain = 0
KPD3 200120Z 33002KT M02/M06 A3027 RMK A01 T10201062  RH  073%=      5-min Rain = 0
KPD3 200121Z 32002KT M02/M06 A3027 RMK A01 T10171059  RH  073%=      5-min Rain = 0
KPD3 200122Z 32002KT M01/M05 A3027 RMK A01 T10131054  RH  074%=      5-min Rain = 0
KPD3 200123Z 32002KT M01/M06 A3027 RMK A01 T10101055  RH  071%=      5-min Rain = 0
KPD3 200124Z 32002KT M01/M07 A3027 RMK A01 T10141067  RH  067%=      5-min Rain = 0
KPD3 200125Z 32002KT M02/M07 A3027 RMK A01 T10191072  RH  067%=      5-min Rain = 0
KPD3 200126Z 31001KT M02/M08 A3027 RMK A01 T10241075  RH  068%=      5-min Rain = 0
KPD3 200127Z 30001KT M03/M08 A3027 RMK A01 T10281076  RH  070%=      5-min Rain = 0
KPD3 200128Z 28002KT M03/M08 A3027 RMK A01 T10311075  RH  072%=      5-min Rain = 0
KPD3 200129Z 28002KT M03/M07 A3027 RMK A01 T10321074  RH  073%=      5-min Rain = 0
KPD3 200130Z 28002KT M03/M07 A3027 RMK A01 T10321073  RH  073%=      5-min Rain = 0
KPD3 200131Z 28002KT M03/M07 A3027 RMK A01 T10331073  RH  073%=      5-min Rain = 0
KPD3 200132Z 27002KT M03/M07 A3027 RMK A01 T10331073  RH  074%=      5-min Rain = 0
KPD3 200133Z 27002KT M03/M07 A3027 RMK A01 T10341073  RH  074%=      5-min Rain = 0
KPD3 200134Z 27003KT M03/M07 A3027 RMK A01 T10341072  RH  075%=      5-min Rain = 0
KPD3 200135Z 27003KT M03/M07 A3027 RMK A01 T10331070  RH  075%=      5-min Rain = 0
KPD3 200136Z 27003KT M03/M07 A3027 RMK A01 T10321070  RH  075%=      5-min Rain = 0
KPD3 200137Z 27003KT M03/M07 A3027 RMK A01 T10321070  RH  075%=      5-min Rain = 0
KPD3 200138Z 28003KT M03/M07 A3027 RMK A01 T10301068  RH  075%=      5-min Rain = 0
KPD3 200139Z 30002KT M03/M07 A3027 RMK A01 T10301067  RH  075%=      5-min Rain = 0
KPD3 200140Z 31002KT M03/M07 A3027 RMK A01 T10281066  RH  075%=      5-min Rain = 0
KPD3 200141Z 33002KT M03/M07 A3026 RMK A01 T10271065  RH  075%=      5-min Rain = 0
KPD3 200142Z 34003KT M02/M05 A3026 RMK A01 T10191053  RH  078%=      5-min Rain = 0
KPD3 200143Z 34003KT M01/M04 A3026 RMK A01 T10091043  RH  077%=      5-min Rain = 0
KPD3 200144Z 35003KT M00/M04 A3026 RMK A01 T10011043  RH  073%=      5-min Rain = 0
KPD3 200145Z 35003KT M00/M06 A3026 RMK A01 T10031055  RH  068%=      5-min Rain = 0
KPD3 200146Z 34003KT M01/M07 A3026 RMK A01 T10121069  RH  065%=      5-min Rain = 0
KPD3 200147Z 33003KT M02/M08 A3026 RMK A01 T10241079  RH  066%=      5-min Rain = 0
KPD3 200148Z 33004KT M03/M08 A3026 RMK A01 T10311079  RH  069%=      5-min Rain = 0
KPD3 200149Z 33004KT M03/M07 A3026 RMK A01 T10321073  RH  074%=      5-min Rain = 0
KPD3 200150Z 32004KT M03/M07 A3026 RMK A01 T10321070  RH  075%=      5-min Rain = 0
KPD3 200151Z 31004KT M03/M07 A3026 RMK A01 T10321069  RH  075%=      5-min Rain = 0
KPD3 200152Z 30004KT M03/M07 A3026 RMK A01 T10321069  RH  075%=      5-min Rain = 0
KPD3 200153Z 30004KT M03/M07 A3026 RMK A01 T10321069  RH  075%=      5-min Rain = 0
KPD3 200154Z 29004KT M03/M07 A3026 RMK A01 T10321068  RH  076%=      5-min Rain = 0
KPD3 200155Z 29004KT M03/M07 A3026 RMK A01 T10321068  RH  076%=      5-min Rain = 0
KPD3 200156Z 29004KT M03/M07 A3026 RMK A01 T10331071  RH  075%=      5-min Rain = 0
KPD3 200157Z 28004KT M04/M07 A3026 RMK A01 T10361074  RH  075%=      5-min Rain = 0
KPD3 200158Z 28003KT M04/M08 A3026 RMK A01 T10401078  RH  075%=      5-min Rain = 0
KPD3 200159Z 28003KT M04/M08 A3026 RMK A01 T10421077  RH  077%=      5-min Rain = 0
KPD3 200200Z 27003KT M04/M07 A3026 RMK A01 T10421073  RH  079%=      5-min Rain = 0
KPD3 200201Z 27003KT M04/M07 A3026 RMK A01 T10411072  RH  079%=      5-min Rain = 0
KPD3 200202Z 27003KT M04/M07 A3027 RMK A01 T10401073  RH  078%=      5-min Rain = 0
KPD3 200203Z 27003KT M04/M07 A3027 RMK A01 T10391071  RH  078%=      5-min Rain = 0
KPD3 200204Z 27003KT M04/M07 A3027 RMK A01 T10381069  RH  079%=      5-min Rain = 0
KPD3 200205Z 27003KT M04/M07 A3027 RMK A01 T10371070  RH  078%=      5-min Rain = 0
KPD3 200206Z 27003KT M04/M07 A3027 RMK A01 T10361070  RH  077%=      5-min Rain = 0
KPD3 200207Z 27003KT M04/M07 A3027 RMK A01 T10351069  RH  077%=      5-min Rain = 0
KPD3 200208Z 27002KT M03/M07 A3027 RMK A01 T10341068  RH  078%=      5-min Rain = 0
KPD3 200209Z 29002KT M03/M07 A3027 RMK A01 T10331066  RH  078%=      5-min Rain = 0
KPD3 200210Z 30002KT M03/M06 A3027 RMK A01 T10311064  RH  078%=      5-min Rain = 0
KPD3 200211Z 31002KT M03/M07 A3027 RMK A01 T10301066  RH  076%=      5-min Rain = 0
KPD3 200212Z 31002KT M03/M07 A3027 RMK A01 T10311068  RH  076%=      5-min Rain = 0
KPD3 200213Z 31003KT M03/M07 A3027 RMK A01 T10321069  RH  076%=      5-min Rain = 0
KPD3 200214Z 31003KT M04/M07 A3027 RMK A01 T10351073  RH  075%=      5-min Rain = 0
KPD3 200215Z 31003KT M04/M07 A3027 RMK A01 T10371073  RH  076%=      5-min Rain = 0
KPD3 200216Z 31003KT M04/M07 A3028 RMK A01 T10371071  RH  077%=      5-min Rain = 0
KPD3 200217Z 30004KT M04/M07 A3028 RMK A01 T10371069  RH  078%=      5-min Rain = 0
KPD3 200218Z 30004KT M04/M07 A3028 RMK A01 T10361068  RH  078%=      5-min Rain = 0
KPD3 200219Z 30004KT M03/M06 A3028 RMK A01 T10341064  RH  079%=      5-min Rain = 0
KPD3 200220Z 30004KT M03/M06 A3028 RMK A01 T10301061  RH  079%=      5-min Rain = 0
KPD3 200221Z 30005KT M03/M06 A3028 RMK A01 T10291063  RH  078%=      5-min Rain = 0
KPD3 200222Z 30005KT M03/M06 A3028 RMK A01 T10301064  RH  077%=      5-min Rain = 0
KPD3 200223Z 31005KT M03/M06 A3029 RMK A01 T10291063  RH  077%=      5-min Rain = 0
KPD3 200224Z 31004KT M03/M06 A3028 RMK A01 T10271061  RH  077%=      5-min Rain = 0
KPD3 200225Z 32004KT M03/M06 A3028 RMK A01 T10251059  RH  077%=      5-min Rain = 0
KPD3 200226Z 33004KT M02/M06 A3028 RMK A01 T10231058  RH  077%=      5-min Rain = 0
KPD3 200227Z 33004KT M02/M06 A3028 RMK A01 T10221057  RH  077%=      5-min Rain = 0
KPD3 200228Z 33004KT M02/M06 A3028 RMK A01 T10211057  RH  076%=      5-min Rain = 0
KPD3 200229Z 34004KT M02/M06 A3028 RMK A01 T10211057  RH  076%=      5-min Rain = 0
KPD3 200230Z 35003KT M02/M06 A3028 RMK A01 T10211057  RH  076%=      5-min Rain = 0
KPD3 200231Z 36004KT M02/M06 A3028 RMK A01 T10211057  RH  076%=      5-min Rain = 0
KPD3 200232Z 01004KT M02/M06 A3028 RMK A01 T10211057  RH  076%=      5-min Rain = 0
KPD3 200233Z 01003KT M02/M06 A3028 RMK A01 T10201056  RH  076%=      5-min Rain = 0
KPD3 200234Z 01003KT M02/M06 A3029 RMK A01 T10201057  RH  076%=      5-min Rain = 0
KPD3 200235Z 02003KT M02/M06 A3029 RMK A01 T10201057  RH  076%=      5-min Rain = 0
KPD3 200236Z 02003KT M02/M06 A3029 RMK A01 T10201057  RH  076%=      5-min Rain = 0
KPD3 200237Z 03003KT M02/M06 A3029 RMK A01 T10211058  RH  076%=      5-min Rain = 0
KPD3 200238Z 03003KT M02/M06 A3029 RMK A01 T10221059  RH  076%=      5-min Rain = 0
KPD3 200239Z 03002KT M02/M06 A3029 RMK A01 T10231060  RH  075%=      5-min Rain = 0
KPD3 200240Z 03002KT M02/M06 A3029 RMK A01 T10241061  RH  075%=      5-min Rain = 0
KPD3 200241Z 03001KT M03/M06 A3029 RMK A01 T10251062  RH  075%=      5-min Rain = 0
KPD3 200242Z 04001KT M03/M06 A3029 RMK A01 T10261063  RH  076%=      5-min Rain = 0
KPD3 200243Z 04001KT M03/M06 A3029 RMK A01 T10271064  RH  076%=      5-min Rain = 0
KPD3 200244Z 04002KT M03/M07 A3029 RMK A01 T10281065  RH  076%=      5-min Rain = 0
KPD3 200245Z 04001KT M03/M07 A3029 RMK A01 T10301067  RH  076%=      5-min Rain = 0
KPD3 200246Z 04001KT M03/M07 A3029 RMK A01 T10321068  RH  076%=      5-min Rain = 0
KPD3 200247Z 04001KT M04/M07 A3029 RMK A01 T10351070  RH  076%=      5-min Rain = 0
KPD3 200248Z 04000KT M04/M07 A3029 RMK A01 T10361069  RH  078%=      5-min Rain = 0
KPD3 200249Z 27000KT M04/M07 A3029 RMK A01 T10361066  RH  080%=      5-min Rain = 0
KPD3 200250Z 28002KT M04/M07 A3029 RMK A01 T10351066  RH  079%=      5-min Rain = 0
KPD3 200251Z 30002KT M04/M07 A3029 RMK A01 T10351067  RH  079%=      5-min Rain = 0
KPD3 200252Z 34001KT M04/M07 A3028 RMK A01 T10361066  RH  080%=      5-min Rain = 0
KPD3 200253Z 00002KT M03/M06 A3028 RMK A01 T10321060  RH  081%=      5-min Rain = 0
KPD3 200254Z 02003KT M03/M06 A3028 RMK A01 T10291057  RH  081%=      5-min Rain = 0
KPD3 200255Z 02003KT M02/M05 A3028 RMK A01 T10241053  RH  080%=      5-min Rain = 0
KPD3 200256Z 02004KT M02/M06 A3028 RMK A01 T10231056  RH  078%=      5-min Rain = 0
KPD3 200257Z 02004KT M02/M06 A3028 RMK A01 T10231059  RH  077%=      5-min Rain = 0
KPD3 200258Z 02004KT M02/M06 A3028 RMK A01 T10241059  RH  077%=      5-min Rain = 0
KPD3 200259Z 02004KT M02/M06 A3028 RMK A01 T10241058  RH  077%=      5-min Rain = 0
KPD3 200300Z 02004KT M03/M06 A3028 RMK A01 T10251059  RH  077%=      5-min Rain = 0
KPD3 200301Z 01004KT M03/M06 A3028 RMK A01 T10261060  RH  078%=      5-min Rain = 0
KPD3 200302Z 01004KT M03/M06 A3028 RMK A01 T10261059  RH  078%=      5-min Rain = 0
KPD3 200303Z 01004KT M03/M06 A3029 RMK A01 T10251057  RH  079%=      5-min Rain = 0
KPD3 200304Z 00003KT M03/M06 A3029 RMK A01 T10251056  RH  079%=      5-min Rain = 0
KPD3 200305Z 34002KT M03/M06 A3029 RMK A01 T10251058  RH  078%=      5-min Rain = 0
KPD3 200306Z 28004KT M03/M06 A3029 RMK A01 T10281063  RH  077%=      5-min Rain = 0
KPD3 200307Z 25006KT M03/M07 A3029 RMK A01 T10321067  RH  077%=      5-min Rain = 0
KPD3 200308Z 25008KT M03/M06 A3029 RMK A01 T10331064  RH  079%=      5-min Rain = 0
KPD3 200309Z 25007KT M03/M06 A303 RMK A01 T10311059  RH  081%=      5-min Rain = 0
KPD3 200310Z 26005KT M03/M05 A3029 RMK A01 T10261054  RH  082%=      5-min Rain = 0
KPD3 200311Z 26002KT M02/M05 A3029 RMK A01 T10231051  RH  081%=      5-min Rain = 0
KPD3 200312Z 28001KT M02/M05 A3029 RMK A01 T10211053  RH  079%=      5-min Rain = 0
KPD3 200313Z 27002KT M02/M05 A3029 RMK A01 T10211054  RH  078%=      5-min Rain = 0
KPD3 200314Z 26002KT M02/M06 A3028 RMK A01 T10221055  RH  078%=      5-min Rain = 0
KPD3 200315Z 25003KT M02/M06 A3028 RMK A01 T10221055  RH  078%=      5-min Rain = 0
KPD3 200316Z 24003KT M02/M05 A3028 RMK A01 T10221054  RH  078%=      5-min Rain = 0
KPD3 200317Z 24004KT M02/M05 A3028 RMK A01 T10211054  RH  078%=      5-min Rain = 0
KPD3 200318Z 25004KT M02/M05 A3028 RMK A01 T10211054  RH  078%=      5-min Rain = 0
KPD3 200319Z 25003KT M02/M06 A3028 RMK A01 T10211056  RH  077%=      5-min Rain = 0
KPD3 200320Z 26002KT M02/M06 A3028 RMK A01 T10221056  RH  077%=      5-min Rain = 0
KPD3 200321Z 27002KT M02/M06 A3028 RMK A01 T10231056  RH  078%=      5-min Rain = 0
KPD3 200322Z 27003KT M02/M06 A3028 RMK A01 T10231056  RH  078%=      5-min Rain = 0
KPD3 200323Z 28003KT M02/M06 A3028 RMK A01 T10231056  RH  078%=      5-min Rain = 0
KPD3 200324Z 28003KT M02/M06 A3028 RMK A01 T10231056  RH  079%=      5-min Rain = 0
KPD3 200325Z 28003KT M02/M06 A3028 RMK A01 T10241055  RH  079%=      5-min Rain = 0
KPD3 200326Z 29003KT M03/M06 A3028 RMK A01 T10251056  RH  079%=      5-min Rain = 0
KPD3 200327Z 29002KT M03/M06 A3028 RMK A01 T10251056  RH  079%=      5-min Rain = 0
KPD3 200328Z 29002KT M03/M05 A3028 RMK A01 T10251054  RH  080%=      5-min Rain = 0
KPD3 200329Z 27001KT M03/M06 A3028 RMK A01 T10251055  RH  080%=      5-min Rain = 0
KPD3 200330Z 25002KT M03/M06 A3027 RMK A01 T10261056  RH  080%=      5-min Rain = 0
KPD3 200331Z 25002KT M03/M06 A3027 RMK A01 T10281059  RH  079%=      5-min Rain = 0
KPD3 200332Z 27001KT M03/M06 A3028 RMK A01 T10291060  RH  079%=      5-min Rain = 0
KPD3 200333Z 29002KT M03/M06 A3028 RMK A01 T10291058  RH  081%=      5-min Rain = 0
KPD3 200334Z 31001KT M03/M06 A3028 RMK A01 T10291057  RH  081%=      5-min Rain = 0
KPD3 200335Z 33001KT M03/M05 A3027 RMK A01 T10271054  RH  082%=      5-min Rain = 0
KPD3 200336Z 33000KT M03/M06 A3027 RMK A01 T10261055  RH  081%=      5-min Rain = 0
KPD3 200337Z 00000KT M03/M06 A3027 RMK A01 T10271060  RH  078%=      5-min Rain = 0
KPD3 200338Z 00000KT M03/M06 A3027 RMK A01 T10311064  RH  078%=      5-min Rain = 0
KPD3 200339Z 00000KT M03/M07 A3027 RMK A01 T10341067  RH  078%=      5-min Rain = 0
KPD3 200340Z 23001KT M04/M07 A3027 RMK A01 T10361067  RH  079%=      5-min Rain = 0
KPD3 200341Z 23002KT M04/M07 A3028 RMK A01 T10381068  RH  080%=      5-min Rain = 0
KPD3 200342Z 23003KT M04/M07 A3028 RMK A01 T10411069  RH  081%=      5-min Rain = 0
KPD3 200343Z 23003KT M04/M07 A3028 RMK A01 T10411066  RH  083%=      5-min Rain = 0
KPD3 200344Z 23003KT M04/M06 A3028 RMK A01 T10411064  RH  084%=      5-min Rain = 0
KPD3 200345Z 23002KT M04/M07 A3028 RMK A01 T10421067  RH  083%=      5-min Rain = 0
KPD3 200346Z 24002KT M04/M07 A3028 RMK A01 T10431068  RH  083%=      5-min Rain = 0
KPD3 200347Z 24001KT M04/M07 A3028 RMK A01 T10441069  RH  083%=      5-min Rain = 0
KPD3 200348Z 24001KT M04/M07 A3028 RMK A01 T10441068  RH  083%=      5-min Rain = 0
KPD3 200349Z 24000KT M05/M07 A3028 RMK A01 T10451069  RH  083%=      5-min Rain = 0
KPD3 200350Z 24000KT M05/M07 A3028 RMK A01 T10461071  RH  083%=      5-min Rain = 0
KPD3 200351Z 00000KT M05/M07 A3028 RMK A01 T10471072  RH  083%=      5-min Rain = 0
KPD3 200352Z 00000KT M05/M07 A3028 RMK A01 T10491073  RH  083%=      5-min Rain = 0
KPD3 200353Z 24000KT M05/M07 A3028 RMK A01 T10491073  RH  083%=      5-min Rain = 0
KPD3 200354Z 24000KT M05/M07 A3028 RMK A01 T10501074  RH  084%=      5-min Rain = 0
KPD3 200355Z 24001KT M05/M08 A3027 RMK A01 T10521075  RH  084%=      5-min Rain = 0
KPD3 200356Z 24001KT M05/M08 A3027 RMK A01 T10531075  RH  084%=      5-min Rain = 0
KPD3 200357Z 21002KT M05/M08 A3027 RMK A01 T10531075  RH  085%=      5-min Rain = 0
KPD3 200358Z 20002KT M05/M08 A3027 RMK A01 T10531075  RH  085%=      5-min Rain = 0
KPD3 200359Z 20002KT M05/M07 A3028 RMK A01 T10531074  RH  085%=      5-min Rain = 0
KPD3 200400Z 19002KT M05/M07 A3028 RMK A01 T10531074  RH  085%=      5-min Rain = 0
KPD3 200401Z 19002KT M05/M07 A3027 RMK A01 T10531074  RH  085%=      5-min Rain = 0
KPD3 200402Z 18002KT M05/M07 A3027 RMK A01 T10521073  RH  085%=      5-min Rain = 0
KPD3 200403Z 18002KT M05/M07 A3027 RMK A01 T10521073  RH  085%=      5-min Rain = 0
KPD3 200404Z 16002KT M05/M07 A3027 RMK A01 T10521074  RH  085%=      5-min Rain = 0
KPD3 200405Z 17002KT M05/M07 A3027 RMK A01 T10521074  RH  085%=      5-min Rain = 0
KPD3 200406Z 17003KT M05/M07 A3027 RMK A01 T10521074  RH  084%=      5-min Rain = 0
KPD3 200407Z 17003KT M05/M08 A3028 RMK A01 T10531077  RH  083%=      5-min Rain = 0
KPD3 200408Z 17004KT M06/M08 A3028 RMK A01 T10561081  RH  083%=      5-min Rain = 0
KPD3 200409Z 16004KT M06/M08 A3028 RMK A01 T10571081  RH  084%=      5-min Rain = 0
KPD3 200410Z 15004KT M06/M08 A3028 RMK A01 T10581079  RH  085%=      5-min Rain = 0
KPD3 200411Z 15005KT M06/M08 A3028 RMK A01 T10561075  RH  087%=      5-min Rain = 0
KPD3 200412Z 14005KT M06/M07 A3028 RMK A01 T10551074  RH  087%=      5-min Rain = 0
KPD3 200413Z 14006KT M06/M08 A3027 RMK A01 T10551075  RH  086%=      5-min Rain = 0
KPD3 200414Z 13005KT M05/M07 A3027 RMK A01 T10541074  RH  086%=      5-min Rain = 0
KPD3 200415Z 13005KT M05/M07 A3027 RMK A01 T10531072  RH  087%=      5-min Rain = 0
KPD3 200416Z 14004KT M05/M07 A3027 RMK A01 T10521070  RH  087%=      5-min Rain = 0
KPD3 200417Z 15003KT M05/M07 A3027 RMK A01 T10511067  RH  088%=      5-min Rain = 0
KPD3 200418Z 16003KT M05/M06 A3027 RMK A01 T10481064  RH  088%=      5-min Rain = 0
KPD3 200419Z 17004KT M05/M06 A3027 RMK A01 T10461063  RH  087%=      5-min Rain = 0
KPD3 200420Z 17004KT M04/M06 A3027 RMK A01 T10441063  RH  086%=      5-min Rain = 0
KPD3 200421Z 18006KT M04/M06 A3027 RMK A01 T10431064  RH  085%=      5-min Rain = 0
KPD3 200422Z 19008KT M05/M07 A3028 RMK A01 T10461072  RH  082%=      5-min Rain = 0
KPD3 200423Z 20009KT M05/M07 A3028 RMK A01 T10471070  RH  084%=      5-min Rain = 0
KPD3 200424Z 20008KT M05/M06 A3028 RMK A01 T10451064  RH  086%=      5-min Rain = 0
KPD3 200425Z 19008KT M04/M06 A3028 RMK A01 T10431062  RH  086%=      5-min Rain = 0
KPD3 200426Z 19008KT M04/M06 A3028 RMK A01 T10411061  RH  086%=      5-min Rain = 0
KPD3 200427Z 19008KT M04/M06 A3028 RMK A01 T10401062  RH  085%=      5-min Rain = 0
KPD3 200428Z 18007KT M04/M06 A3028 RMK A01 T10401064  RH  083%=      5-min Rain = 0
KPD3 200429Z 19006KT M04/M07 A3028 RMK A01 T10421066  RH  083%=      5-min Rain = 0
KPD3 200430Z 19005KT M04/M07 A3028 RMK A01 T10421066  RH  084%=      5-min Rain = 0
KPD3 200431Z 19005KT M04/M06 A3028 RMK A01 T10421064  RH  084%=      5-min Rain = 0
KPD3 200432Z 18005KT M04/M06 A3028 RMK A01 T10401063  RH  084%=      5-min Rain = 0
KPD3 200433Z 18006KT M04/M06 A3028 RMK A01 T10391062  RH  084%=      5-min Rain = 0
KPD3 200434Z 17007KT M04/M06 A3028 RMK A01 T10381062  RH  084%=      5-min Rain = 0
KPD3 200435Z 17007KT M04/M06 A3028 RMK A01 T10381062  RH  083%=      5-min Rain = 0
KPD3 200436Z 18007KT M04/M06 A3028 RMK A01 T10371062  RH  083%=      5-min Rain = 0
KPD3 200437Z 18008KT M04/M06 A3028 RMK A01 T10371062  RH  083%=      5-min Rain = 0
KPD3 200438Z 18007KT M04/M06 A3028 RMK A01 T10381063  RH  083%=      5-min Rain = 0
KPD3 200439Z 18007KT M04/M07 A3029 RMK A01 T10391065  RH  082%=      5-min Rain = 0
KPD3 200440Z 18006KT M04/M07 A3029 RMK A01 T10411067  RH  082%=      5-min Rain = 0
KPD3 200441Z 18006KT M04/M07 A3029 RMK A01 T10411066  RH  083%=      5-min Rain = 0
KPD3 200442Z 18005KT M04/M07 A3029 RMK A01 T10411065  RH  084%=      5-min Rain = 0
KPD3 200443Z 18005KT M04/M06 A3029 RMK A01 T10401063  RH  084%=      5-min Rain = 0
KPD3 200444Z 18005KT M04/M06 A3029 RMK A01 T10391062  RH  084%=      5-min Rain = 0
KPD3 200445Z 18005KT M04/M06 A3029 RMK A01 T10381061  RH  084%=      5-min Rain = 0
KPD3 200446Z 18006KT M04/M06 A3029 RMK A01 T10381061  RH  084%=      5-min Rain = 0
KPD3 200447Z 19006KT M04/M06 A3029 RMK A01 T10371062  RH  083%=      5-min Rain = 0
KPD3 200448Z 19006KT M04/M06 A3029 RMK A01 T10371062  RH  083%=      5-min Rain = 0
KPD3 200449Z 20005KT M04/M06 A3029 RMK A01 T10381063  RH  083%=      5-min Rain = 0
KPD3 200450Z 20005KT M04/M06 A3029 RMK A01 T10391064  RH  083%=      5-min Rain = 0
KPD3 200451Z 20005KT M04/M06 A3029 RMK A01 T10391064  RH  083%=      5-min Rain = 0
KPD3 200452Z 19005KT M04/M07 A3029 RMK A01 T10401066  RH  083%=      5-min Rain = 0
KPD3 200453Z 19005KT M04/M07 A3029 RMK A01 T10431068  RH  082%=      5-min Rain = 0
KPD3 200454Z 19005KT M04/M07 A3029 RMK A01 T10441069  RH  083%=      5-min Rain = 0
KPD3 200455Z 19005KT M05/M07 A3029 RMK A01 T10451068  RH  084%=      5-min Rain = 0
KPD3 200456Z 19005KT M05/M07 A3029 RMK A01 T10451067  RH  084%=      5-min Rain = 0
KPD3 200457Z 19005KT M05/M07 A3029 RMK A01 T10451067  RH  085%=      5-min Rain = 0
KPD3 200458Z 19005KT M05/M07 A303 RMK A01 T10451067  RH  084%=      5-min Rain = 0
KPD3 200459Z 19005KT M05/M07 A3029 RMK A01 T10451067  RH  085%=      5-min Rain = 0
KPD3 200500Z 19005KT M05/M07 A3029 RMK A01 T10451067  RH  085%=      5-min Rain = 0
KPD3 200501Z 18006KT M05/M07 A3029 RMK A01 T10451067  RH  085%=      5-min Rain = 0
KPD3 200502Z 18006KT M05/M07 A3028 RMK A01 T10451065  RH  086%=      5-min Rain = 0
KPD3 200503Z 18006KT M04/M06 A3028 RMK A01 T10431063  RH  086%=      5-min Rain = 0
KPD3 200504Z 18005KT M04/M06 A3028 RMK A01 T10421062  RH  086%=      5-min Rain = 0
KPD3 200505Z 18005KT M04/M06 A3028 RMK A01 T10401060  RH  086%=      5-min Rain = 0
KPD3 200506Z 18005KT M04/M06 A3028 RMK A01 T10391060  RH  085%=      5-min Rain = 0
KPD3 200507Z 17005KT M04/M06 A3028 RMK A01 T10391062  RH  084%=      5-min Rain = 0
KPD3 200508Z 17004KT M04/M06 A3028 RMK A01 T10391063  RH  084%=      5-min Rain = 0
KPD3 200509Z 17004KT M04/M06 A3029 RMK A01 T10391062  RH  084%=      5-min Rain = 0
KPD3 200510Z 17004KT M04/M06 A3029 RMK A01 T10401063  RH  084%=      5-min Rain = 0
KPD3 200511Z 16004KT M04/M06 A3029 RMK A01 T10401062  RH  084%=      5-min Rain = 0
KPD3 200512Z 16004KT M04/M06 A3029 RMK A01 T10381059  RH  085%=      5-min Rain = 0
KPD3 200513Z 17004KT M04/M06 A3029 RMK A01 T10371058  RH  085%=      5-min Rain = 0
KPD3 200514Z 17004KT M04/M06 A303 RMK A01 T10361058  RH  085%=      5-min Rain = 0
KPD3 200515Z 19003KT M04/M06 A303 RMK A01 T10361059  RH  084%=      5-min Rain = 0
KPD3 200516Z 19003KT M04/M06 A303 RMK A01 T10351058  RH  084%=      5-min Rain = 0
KPD3 200517Z 19002KT M03/M06 A303 RMK A01 T10331057  RH  084%=      5-min Rain = 0
KPD3 200518Z 18002KT M03/M06 A303 RMK A01 T10331058  RH  083%=      5-min Rain = 0
KPD3 200519Z 18001KT M03/M06 A303 RMK A01 T10331058  RH  083%=      5-min Rain = 0
KPD3 200520Z 17002KT M03/M06 A303 RMK A01 T10321057  RH  083%=      5-min Rain = 0
KPD3 200521Z 17002KT M03/M06 A303 RMK A01 T10331060  RH  082%=      5-min Rain = 0
KPD3 200522Z 18002KT M03/M06 A303 RMK A01 T10341061  RH  082%=      5-min Rain = 0
KPD3 200523Z 18002KT M04/M06 A303 RMK A01 T10361062  RH  082%=      5-min Rain = 0
KPD3 200524Z 19002KT M04/M06 A303 RMK A01 T10371064  RH  082%=      5-min Rain = 0
KPD3 200525Z 19002KT M04/M06 A303 RMK A01 T10381063  RH  083%=      5-min Rain = 0
KPD3 200526Z 18002KT M04/M06 A303 RMK A01 T10381060  RH  084%=      5-min Rain = 0
KPD3 200527Z 16002KT M04/M06 A303 RMK A01 T10351056  RH  086%=      5-min Rain = 0
KPD3 200528Z 15002KT M03/M05 A3031 RMK A01 T10341054  RH  086%=      5-min Rain = 0
KPD3 200529Z 13002KT M03/M05 A3031 RMK A01 T10331053  RH  086%=      5-min Rain = 0
KPD3 200530Z 13002KT M03/M05 A3031 RMK A01 T10321053  RH  085%=      5-min Rain = 0
KPD3 200531Z 13002KT M03/M05 A3031 RMK A01 T10311052  RH  085%=      5-min Rain = 0
KPD3 200532Z 14001KT M03/M05 A303 RMK A01 T10291051  RH  085%=      5-min Rain = 0
KPD3 200533Z 15001KT M03/M05 A303 RMK A01 T10281052  RH  084%=      5-min Rain = 0
KPD3 200534Z 16002KT M03/M05 A303 RMK A01 T10281054  RH  083%=      5-min Rain = 0
KPD3 200535Z 16002KT M03/M06 A303 RMK A01 T10291055  RH  082%=      5-min Rain = 0
KPD3 200536Z 15003KT M03/M05 A303 RMK A01 T10291054  RH  083%=      5-min Rain = 0
KPD3 200537Z 15003KT M03/M05 A303 RMK A01 T10281052  RH  084%=      5-min Rain = 0
KPD3 200538Z 14003KT M03/M05 A303 RMK A01 T10271052  RH  083%=      5-min Rain = 0
KPD3 200539Z 14003KT M03/M06 A3031 RMK A01 T10271055  RH  081%=      5-min Rain = 0
KPD3 200540Z 15003KT M03/M06 A3031 RMK A01 T10301061  RH  079%=      5-min Rain = 0
KPD3 200541Z 15002KT M03/M06 A3031 RMK A01 T10331063  RH  080%=      5-min Rain = 0
KPD3 200542Z 16002KT M03/M06 A3031 RMK A01 T10331059  RH  082%=      5-min Rain = 0
KPD3 200543Z 14001KT M03/M06 A3031 RMK A01 T10331057  RH  084%=      5-min Rain = 0
KPD3 200544Z 11001KT M03/M06 A3031 RMK A01 T10341060  RH  082%=      5-min Rain = 0
KPD3 200545Z 07001KT M04/M06 A3031 RMK A01 T10361061  RH  083%=      5-min Rain = 0
KPD3 200546Z 05001KT M04/M06 A3031 RMK A01 T10351059  RH  084%=      5-min Rain = 0
KPD3 200547Z 04001KT M04/M06 A3032 RMK A01 T10351058  RH  084%=      5-min Rain = 0
KPD3 200548Z 05001KT M03/M06 A3032 RMK A01 T10341056  RH  085%=      5-min Rain = 0
KPD3 200549Z 05001KT M03/M05 A3032 RMK A01 T10321053  RH  085%=      5-min Rain = 0
KPD3 200550Z 06002KT M03/M05 A3032 RMK A01 T10311052  RH  085%=      5-min Rain = 0
KPD3 200551Z 06002KT M03/M05 A3032 RMK A01 T10301051  RH  085%=      5-min Rain = 0
KPD3 200552Z 06002KT M03/M05 A3032 RMK A01 T10281051  RH  084%=      5-min Rain = 0
KPD3 200553Z 06001KT M03/M05 A3032 RMK A01 T10281052  RH  083%=      5-min Rain = 0
KPD3 200554Z 06001KT M03/M05 A3032 RMK A01 T10281053  RH  083%=      5-min Rain = 0
KPD3 200555Z 05001KT M03/M05 A3031 RMK A01 T10281053  RH  083%=      5-min Rain = 0
KPD3 200556Z 06001KT M03/M05 A3031 RMK A01 T10281053  RH  083%=      5-min Rain = 0
KPD3 200557Z 05001KT M03/M05 A3031 RMK A01 T10281054  RH  082%=      5-min Rain = 0
KPD3 200558Z 04001KT M03/M06 A3032 RMK A01 T10301056  RH  082%=      5-min Rain = 0
KPD3 200559Z 05001KT M03/M06 A3032 RMK A01 T10311057  RH  082%=      5-min Rain = 0

Page generated in 0.0778 seconds.